<?xml version="1.0" encoding="UTF-8" standalone="no" ?>
<gpx xmlns="http://www.topografix.com/GPX/1/1" xmlns:xsi="http://www.w3.org/2001/XMLSchema-instance" xsi:schemaLocation="http://www.topografix.com/GPX/1/1 http://www.topografix.com/GPX/1/1/gpx.xsd" version="1.1" creator="VisuGPX - https://www.visugpx.com">
  <metadata>
    <name>VTT St Christophe du Bois</name>
    <desc><![CDATA[Circuit #1 St Christophe du Bois (Facile)]]></desc>
  </metadata>
  <trk>
    <name><![CDATA[17/09/2014 09:52:14]]></name>
    <trkseg>
      <trkpt lat="47.03443" lon="-0.9405">
        <ele>90.799987792969</ele>
        <time>2014-09-17T07:52:14Z</time>
      </trkpt>
      <trkpt lat="47.03443" lon="-0.94049">
        <ele>90.799987792969</ele>
        <time>2014-09-17T07:52:16Z</time>
      </trkpt>
      <trkpt lat="47.03445" lon="-0.94049">
        <ele>90.799987792969</ele>
        <time>2014-09-17T07:52:17Z</time>
      </trkpt>
      <trkpt lat="47.03446" lon="-0.94047">
        <ele>90.799987792969</ele>
        <time>2014-09-17T07:52:19Z</time>
      </trkpt>
      <trkpt lat="47.03448" lon="-0.94047">
        <ele>90.799987792969</ele>
        <time>2014-09-17T07:52:23Z</time>
      </trkpt>
      <trkpt lat="47.0345" lon="-0.94048">
        <ele>90.799987792969</ele>
        <time>2014-09-17T07:52:24Z</time>
      </trkpt>
      <trkpt lat="47.03457" lon="-0.94048">
        <ele>90.799987792969</ele>
        <time>2014-09-17T07:52:27Z</time>
      </trkpt>
      <trkpt lat="47.03463" lon="-0.94045">
        <ele>90.799987792969</ele>
        <time>2014-09-17T07:52:30Z</time>
      </trkpt>
      <trkpt lat="47.03465" lon="-0.94041">
        <ele>90.799987792969</ele>
        <time>2014-09-17T07:52:32Z</time>
      </trkpt>
      <trkpt lat="47.03478" lon="-0.94021">
        <ele>90.799987792969</ele>
        <time>2014-09-17T07:52:42Z</time>
      </trkpt>
      <trkpt lat="47.03486" lon="-0.94008">
        <ele>90.400024414062</ele>
        <time>2014-09-17T07:52:47Z</time>
      </trkpt>
      <trkpt lat="47.03488" lon="-0.94008">
        <ele>90</ele>
        <time>2014-09-17T07:52:48Z</time>
      </trkpt>
      <trkpt lat="47.03491" lon="-0.94008">
        <ele>89.599975585938</ele>
        <time>2014-09-17T07:52:49Z</time>
      </trkpt>
      <trkpt lat="47.03493" lon="-0.9401">
        <ele>89.200012207031</ele>
        <time>2014-09-17T07:52:50Z</time>
      </trkpt>
      <trkpt lat="47.03496" lon="-0.94013">
        <ele>88.799987792969</ele>
        <time>2014-09-17T07:52:51Z</time>
      </trkpt>
      <trkpt lat="47.03498" lon="-0.94016">
        <ele>88.799987792969</ele>
        <time>2014-09-17T07:52:52Z</time>
      </trkpt>
      <trkpt lat="47.0351" lon="-0.9403">
        <ele>88.799987792969</ele>
        <time>2014-09-17T07:52:56Z</time>
      </trkpt>
      <trkpt lat="47.03528" lon="-0.94051">
        <ele>88.799987792969</ele>
        <time>2014-09-17T07:53:02Z</time>
      </trkpt>
      <trkpt lat="47.03539" lon="-0.94064">
        <ele>87.799987792969</ele>
        <time>2014-09-17T07:53:05Z</time>
      </trkpt>
      <trkpt lat="47.03542" lon="-0.94069">
        <ele>87.400024414062</ele>
        <time>2014-09-17T07:53:06Z</time>
      </trkpt>
      <trkpt lat="47.03545" lon="-0.94073">
        <ele>87</ele>
        <time>2014-09-17T07:53:07Z</time>
      </trkpt>
      <trkpt lat="47.03548" lon="-0.94078">
        <ele>86.599975585938</ele>
        <time>2014-09-17T07:53:08Z</time>
      </trkpt>
      <trkpt lat="47.03551" lon="-0.94096">
        <ele>86.599975585938</ele>
        <time>2014-09-17T07:53:11Z</time>
      </trkpt>
      <trkpt lat="47.03551" lon="-0.94116">
        <ele>86.599975585938</ele>
        <time>2014-09-17T07:53:14Z</time>
      </trkpt>
      <trkpt lat="47.03549" lon="-0.94129">
        <ele>86.599975585938</ele>
        <time>2014-09-17T07:53:16Z</time>
      </trkpt>
      <trkpt lat="47.03547" lon="-0.94135">
        <ele>86.599975585938</ele>
        <time>2014-09-17T07:53:17Z</time>
      </trkpt>
      <trkpt lat="47.03538" lon="-0.94176">
        <ele>86.599975585938</ele>
        <time>2014-09-17T07:53:24Z</time>
      </trkpt>
      <trkpt lat="47.03528" lon="-0.94186">
        <ele>86.599975585938</ele>
        <time>2014-09-17T07:53:27Z</time>
      </trkpt>
      <trkpt lat="47.03525" lon="-0.94195">
        <ele>86.599975585938</ele>
        <time>2014-09-17T07:53:29Z</time>
      </trkpt>
      <trkpt lat="47.03527" lon="-0.94213">
        <ele>86.599975585938</ele>
        <time>2014-09-17T07:53:32Z</time>
      </trkpt>
      <trkpt lat="47.03528" lon="-0.94218">
        <ele>86.599975585938</ele>
        <time>2014-09-17T07:53:33Z</time>
      </trkpt>
      <trkpt lat="47.0353" lon="-0.9423">
        <ele>86.599975585938</ele>
        <time>2014-09-17T07:53:37Z</time>
      </trkpt>
      <trkpt lat="47.03538" lon="-0.94249">
        <ele>86.599975585938</ele>
        <time>2014-09-17T07:53:42Z</time>
      </trkpt>
      <trkpt lat="47.03548" lon="-0.94283">
        <ele>86.599975585938</ele>
        <time>2014-09-17T07:53:49Z</time>
      </trkpt>
      <trkpt lat="47.0356" lon="-0.94318">
        <ele>86.599975585938</ele>
        <time>2014-09-17T07:53:58Z</time>
      </trkpt>
      <trkpt lat="47.03561" lon="-0.94333">
        <ele>86.599975585938</ele>
        <time>2014-09-17T07:54:03Z</time>
      </trkpt>
      <trkpt lat="47.03563" lon="-0.94342">
        <ele>86.599975585938</ele>
        <time>2014-09-17T07:54:10Z</time>
      </trkpt>
      <trkpt lat="47.03565" lon="-0.94348">
        <ele>86.599975585938</ele>
        <time>2014-09-17T07:54:17Z</time>
      </trkpt>
      <trkpt lat="47.03566" lon="-0.94351">
        <ele>86.200012207031</ele>
        <time>2014-09-17T07:54:21Z</time>
      </trkpt>
      <trkpt lat="47.03567" lon="-0.94352">
        <ele>85.799987792969</ele>
        <time>2014-09-17T07:54:22Z</time>
      </trkpt>
      <trkpt lat="47.03567" lon="-0.94352">
        <ele>85.400024414062</ele>
        <time>2014-09-17T07:54:23Z</time>
      </trkpt>
      <trkpt lat="47.03568" lon="-0.94354">
        <ele>85</ele>
        <time>2014-09-17T07:54:24Z</time>
      </trkpt>
      <trkpt lat="47.03568" lon="-0.94356">
        <ele>84.599975585938</ele>
        <time>2014-09-17T07:54:25Z</time>
      </trkpt>
      <trkpt lat="47.03565" lon="-0.94359">
        <ele>84.599975585938</ele>
        <time>2014-09-17T07:54:30Z</time>
      </trkpt>
      <trkpt lat="47.03549" lon="-0.94365">
        <ele>84.599975585938</ele>
        <time>2014-09-17T07:54:35Z</time>
      </trkpt>
      <trkpt lat="47.03529" lon="-0.94374">
        <ele>84.599975585938</ele>
        <time>2014-09-17T07:54:40Z</time>
      </trkpt>
      <trkpt lat="47.03511" lon="-0.9438">
        <ele>84.200012207031</ele>
        <time>2014-09-17T07:54:44Z</time>
      </trkpt>
      <trkpt lat="47.03507" lon="-0.9438">
        <ele>83.799987792969</ele>
        <time>2014-09-17T07:54:45Z</time>
      </trkpt>
      <trkpt lat="47.03503" lon="-0.94381">
        <ele>83.400024414062</ele>
        <time>2014-09-17T07:54:46Z</time>
      </trkpt>
      <trkpt lat="47.03498" lon="-0.94381">
        <ele>83</ele>
        <time>2014-09-17T07:54:47Z</time>
      </trkpt>
      <trkpt lat="47.03494" lon="-0.9438">
        <ele>82.599975585938</ele>
        <time>2014-09-17T07:54:48Z</time>
      </trkpt>
      <trkpt lat="47.03476" lon="-0.94373">
        <ele>82.599975585938</ele>
        <time>2014-09-17T07:54:52Z</time>
      </trkpt>
      <trkpt lat="47.03441" lon="-0.94357">
        <ele>82.599975585938</ele>
        <time>2014-09-17T07:55:01Z</time>
      </trkpt>
      <trkpt lat="47.03424" lon="-0.9435">
        <ele>82.599975585938</ele>
        <time>2014-09-17T07:55:06Z</time>
      </trkpt>
      <trkpt lat="47.03414" lon="-0.9434">
        <ele>82.599975585938</ele>
        <time>2014-09-17T07:55:11Z</time>
      </trkpt>
      <trkpt lat="47.03404" lon="-0.94334">
        <ele>82.599975585938</ele>
        <time>2014-09-17T07:55:14Z</time>
      </trkpt>
      <trkpt lat="47.034" lon="-0.94331">
        <ele>82.599975585938</ele>
        <time>2014-09-17T07:55:15Z</time>
      </trkpt>
      <trkpt lat="47.03374" lon="-0.94306">
        <ele>82.599975585938</ele>
        <time>2014-09-17T07:55:23Z</time>
      </trkpt>
      <trkpt lat="47.03357" lon="-0.94291">
        <ele>82.599975585938</ele>
        <time>2014-09-17T07:55:29Z</time>
      </trkpt>
      <trkpt lat="47.03346" lon="-0.94281">
        <ele>82.599975585938</ele>
        <time>2014-09-17T07:55:34Z</time>
      </trkpt>
      <trkpt lat="47.03341" lon="-0.94291">
        <ele>82.599975585938</ele>
        <time>2014-09-17T07:55:37Z</time>
      </trkpt>
      <trkpt lat="47.03337" lon="-0.94296">
        <ele>82.599975585938</ele>
        <time>2014-09-17T07:55:40Z</time>
      </trkpt>
      <trkpt lat="47.03335" lon="-0.94295">
        <ele>82.599975585938</ele>
        <time>2014-09-17T07:55:41Z</time>
      </trkpt>
      <trkpt lat="47.03329" lon="-0.9429">
        <ele>82.599975585938</ele>
        <time>2014-09-17T07:55:44Z</time>
      </trkpt>
      <trkpt lat="47.03324" lon="-0.94284">
        <ele>82.599975585938</ele>
        <time>2014-09-17T07:55:47Z</time>
      </trkpt>
      <trkpt lat="47.03301" lon="-0.94265">
        <ele>82.599975585938</ele>
        <time>2014-09-17T07:55:54Z</time>
      </trkpt>
      <trkpt lat="47.03283" lon="-0.94248">
        <ele>82.599975585938</ele>
        <time>2014-09-17T07:56:00Z</time>
      </trkpt>
      <trkpt lat="47.03267" lon="-0.94233">
        <ele>82.599975585938</ele>
        <time>2014-09-17T07:56:05Z</time>
      </trkpt>
      <trkpt lat="47.03235" lon="-0.94206">
        <ele>82.599975585938</ele>
        <time>2014-09-17T07:56:14Z</time>
      </trkpt>
      <trkpt lat="47.03218" lon="-0.94198">
        <ele>82.599975585938</ele>
        <time>2014-09-17T07:56:19Z</time>
      </trkpt>
      <trkpt lat="47.03198" lon="-0.942">
        <ele>82.599975585938</ele>
        <time>2014-09-17T07:56:24Z</time>
      </trkpt>
      <trkpt lat="47.03185" lon="-0.94206">
        <ele>82.599975585938</ele>
        <time>2014-09-17T07:56:27Z</time>
      </trkpt>
      <trkpt lat="47.03178" lon="-0.94211">
        <ele>82.599975585938</ele>
        <time>2014-09-17T07:56:29Z</time>
      </trkpt>
      <trkpt lat="47.03164" lon="-0.94231">
        <ele>83</ele>
        <time>2014-09-17T07:56:34Z</time>
      </trkpt>
      <trkpt lat="47.03161" lon="-0.94235">
        <ele>83.400024414062</ele>
        <time>2014-09-17T07:56:35Z</time>
      </trkpt>
      <trkpt lat="47.03158" lon="-0.9424">
        <ele>83.799987792969</ele>
        <time>2014-09-17T07:56:36Z</time>
      </trkpt>
      <trkpt lat="47.03155" lon="-0.94245">
        <ele>84.200012207031</ele>
        <time>2014-09-17T07:56:37Z</time>
      </trkpt>
      <trkpt lat="47.03152" lon="-0.9425">
        <ele>84.599975585938</ele>
        <time>2014-09-17T07:56:38Z</time>
      </trkpt>
      <trkpt lat="47.03141" lon="-0.94265">
        <ele>84.599975585938</ele>
        <time>2014-09-17T07:56:41Z</time>
      </trkpt>
      <trkpt lat="47.03113" lon="-0.94311">
        <ele>84.599975585938</ele>
        <time>2014-09-17T07:56:50Z</time>
      </trkpt>
      <trkpt lat="47.03103" lon="-0.94338">
        <ele>84.599975585938</ele>
        <time>2014-09-17T07:56:56Z</time>
      </trkpt>
      <trkpt lat="47.031" lon="-0.94348">
        <ele>84.599975585938</ele>
        <time>2014-09-17T07:57:01Z</time>
      </trkpt>
      <trkpt lat="47.03095" lon="-0.94366">
        <ele>84.599975585938</ele>
        <time>2014-09-17T07:57:07Z</time>
      </trkpt>
      <trkpt lat="47.03087" lon="-0.94395">
        <ele>85</ele>
        <time>2014-09-17T07:57:13Z</time>
      </trkpt>
      <trkpt lat="47.03086" lon="-0.94399">
        <ele>85.400024414062</ele>
        <time>2014-09-17T07:57:14Z</time>
      </trkpt>
      <trkpt lat="47.03084" lon="-0.94404">
        <ele>85.799987792969</ele>
        <time>2014-09-17T07:57:15Z</time>
      </trkpt>
      <trkpt lat="47.03082" lon="-0.94409">
        <ele>86.200012207031</ele>
        <time>2014-09-17T07:57:16Z</time>
      </trkpt>
      <trkpt lat="47.03081" lon="-0.94414">
        <ele>86.599975585938</ele>
        <time>2014-09-17T07:57:17Z</time>
      </trkpt>
      <trkpt lat="47.03076" lon="-0.94429">
        <ele>86.599975585938</ele>
        <time>2014-09-17T07:57:20Z</time>
      </trkpt>
      <trkpt lat="47.03062" lon="-0.94458">
        <ele>86.599975585938</ele>
        <time>2014-09-17T07:57:26Z</time>
      </trkpt>
      <trkpt lat="47.03039" lon="-0.94499">
        <ele>86.599975585938</ele>
        <time>2014-09-17T07:57:34Z</time>
      </trkpt>
      <trkpt lat="47.03034" lon="-0.9451">
        <ele>86.599975585938</ele>
        <time>2014-09-17T07:57:36Z</time>
      </trkpt>
      <trkpt lat="47.03032" lon="-0.94515">
        <ele>86.599975585938</ele>
        <time>2014-09-17T07:57:37Z</time>
      </trkpt>
      <trkpt lat="47.03025" lon="-0.9453">
        <ele>86.599975585938</ele>
        <time>2014-09-17T07:57:40Z</time>
      </trkpt>
      <trkpt lat="47.0302" lon="-0.94533">
        <ele>86.599975585938</ele>
        <time>2014-09-17T07:57:42Z</time>
      </trkpt>
      <trkpt lat="47.03018" lon="-0.9453">
        <ele>86.599975585938</ele>
        <time>2014-09-17T07:57:43Z</time>
      </trkpt>
      <trkpt lat="47.03008" lon="-0.94536">
        <ele>86.599975585938</ele>
        <time>2014-09-17T07:57:46Z</time>
      </trkpt>
      <trkpt lat="47.03001" lon="-0.94549">
        <ele>86.599975585938</ele>
        <time>2014-09-17T07:57:49Z</time>
      </trkpt>
      <trkpt lat="47.02995" lon="-0.94557">
        <ele>86.599975585938</ele>
        <time>2014-09-17T07:57:51Z</time>
      </trkpt>
      <trkpt lat="47.02984" lon="-0.94574">
        <ele>87</ele>
        <time>2014-09-17T07:57:56Z</time>
      </trkpt>
      <trkpt lat="47.02982" lon="-0.94576">
        <ele>87.400024414062</ele>
        <time>2014-09-17T07:57:57Z</time>
      </trkpt>
      <trkpt lat="47.02981" lon="-0.94577">
        <ele>87.799987792969</ele>
        <time>2014-09-17T07:57:58Z</time>
      </trkpt>
      <trkpt lat="47.0298" lon="-0.94578">
        <ele>88.200012207031</ele>
        <time>2014-09-17T07:57:59Z</time>
      </trkpt>
      <trkpt lat="47.0298" lon="-0.94579">
        <ele>88.599975585938</ele>
        <time>2014-09-17T07:58:00Z</time>
      </trkpt>
      <trkpt lat="47.0298" lon="-0.94579">
        <ele>88.599975585938</ele>
        <time>2014-09-17T07:58:01Z</time>
      </trkpt>
      <trkpt lat="47.02977" lon="-0.94585">
        <ele>88.599975585938</ele>
        <time>2014-09-17T07:58:07Z</time>
      </trkpt>
      <trkpt lat="47.02974" lon="-0.94589">
        <ele>88.599975585938</ele>
        <time>2014-09-17T07:58:12Z</time>
      </trkpt>
      <trkpt lat="47.02972" lon="-0.94591">
        <ele>88.599975585938</ele>
        <time>2014-09-17T07:58:17Z</time>
      </trkpt>
      <trkpt lat="47.02964" lon="-0.94604">
        <ele>88.599975585938</ele>
        <time>2014-09-17T07:58:21Z</time>
      </trkpt>
      <trkpt lat="47.02947" lon="-0.94626">
        <ele>88.599975585938</ele>
        <time>2014-09-17T07:58:27Z</time>
      </trkpt>
      <trkpt lat="47.02935" lon="-0.94638">
        <ele>88.599975585938</ele>
        <time>2014-09-17T07:58:32Z</time>
      </trkpt>
      <trkpt lat="47.02925" lon="-0.94651">
        <ele>88.599975585938</ele>
        <time>2014-09-17T07:58:38Z</time>
      </trkpt>
      <trkpt lat="47.02916" lon="-0.94664">
        <ele>88.599975585938</ele>
        <time>2014-09-17T07:58:43Z</time>
      </trkpt>
      <trkpt lat="47.02903" lon="-0.94688">
        <ele>88.599975585938</ele>
        <time>2014-09-17T07:58:49Z</time>
      </trkpt>
      <trkpt lat="47.02898" lon="-0.94703">
        <ele>88.599975585938</ele>
        <time>2014-09-17T07:58:53Z</time>
      </trkpt>
      <trkpt lat="47.02898" lon="-0.94705">
        <ele>89</ele>
        <time>2014-09-17T07:58:54Z</time>
      </trkpt>
      <trkpt lat="47.02898" lon="-0.94706">
        <ele>89.599975585938</ele>
        <time>2014-09-17T07:58:55Z</time>
      </trkpt>
      <trkpt lat="47.02898" lon="-0.94708">
        <ele>90</ele>
        <time>2014-09-17T07:58:56Z</time>
      </trkpt>
      <trkpt lat="47.02898" lon="-0.9471">
        <ele>90.400024414062</ele>
        <time>2014-09-17T07:58:57Z</time>
      </trkpt>
      <trkpt lat="47.02898" lon="-0.94714">
        <ele>90.799987792969</ele>
        <time>2014-09-17T07:58:58Z</time>
      </trkpt>
      <trkpt lat="47.02898" lon="-0.94719">
        <ele>90.799987792969</ele>
        <time>2014-09-17T07:58:59Z</time>
      </trkpt>
      <trkpt lat="47.02895" lon="-0.94733">
        <ele>90.799987792969</ele>
        <time>2014-09-17T07:59:02Z</time>
      </trkpt>
      <trkpt lat="47.0289" lon="-0.94741">
        <ele>90.799987792969</ele>
        <time>2014-09-17T07:59:04Z</time>
      </trkpt>
      <trkpt lat="47.02872" lon="-0.94748">
        <ele>90.799987792969</ele>
        <time>2014-09-17T07:59:09Z</time>
      </trkpt>
      <trkpt lat="47.02867" lon="-0.94749">
        <ele>90.799987792969</ele>
        <time>2014-09-17T07:59:10Z</time>
      </trkpt>
      <trkpt lat="47.02851" lon="-0.94754">
        <ele>90.799987792969</ele>
        <time>2014-09-17T07:59:14Z</time>
      </trkpt>
      <trkpt lat="47.02828" lon="-0.94768">
        <ele>90.799987792969</ele>
        <time>2014-09-17T07:59:20Z</time>
      </trkpt>
      <trkpt lat="47.02799" lon="-0.94791">
        <ele>90.799987792969</ele>
        <time>2014-09-17T07:59:28Z</time>
      </trkpt>
      <trkpt lat="47.02795" lon="-0.94795">
        <ele>90.799987792969</ele>
        <time>2014-09-17T07:59:29Z</time>
      </trkpt>
      <trkpt lat="47.02781" lon="-0.94809">
        <ele>90.799987792969</ele>
        <time>2014-09-17T07:59:34Z</time>
      </trkpt>
      <trkpt lat="47.02778" lon="-0.94808">
        <ele>90.799987792969</ele>
        <time>2014-09-17T07:59:35Z</time>
      </trkpt>
      <trkpt lat="47.0277" lon="-0.94809">
        <ele>90.799987792969</ele>
        <time>2014-09-17T07:59:37Z</time>
      </trkpt>
      <trkpt lat="47.02757" lon="-0.94817">
        <ele>90.799987792969</ele>
        <time>2014-09-17T07:59:40Z</time>
      </trkpt>
      <trkpt lat="47.02751" lon="-0.94823">
        <ele>90.799987792969</ele>
        <time>2014-09-17T07:59:42Z</time>
      </trkpt>
      <trkpt lat="47.0274" lon="-0.94831">
        <ele>90.799987792969</ele>
        <time>2014-09-17T07:59:46Z</time>
      </trkpt>
      <trkpt lat="47.02734" lon="-0.94837">
        <ele>90.799987792969</ele>
        <time>2014-09-17T07:59:48Z</time>
      </trkpt>
      <trkpt lat="47.02724" lon="-0.94846">
        <ele>90.799987792969</ele>
        <time>2014-09-17T07:59:53Z</time>
      </trkpt>
      <trkpt lat="47.02723" lon="-0.94847">
        <ele>91.200012207031</ele>
        <time>2014-09-17T07:59:54Z</time>
      </trkpt>
      <trkpt lat="47.02721" lon="-0.94848">
        <ele>91.599975585938</ele>
        <time>2014-09-17T07:59:55Z</time>
      </trkpt>
      <trkpt lat="47.0272" lon="-0.94848">
        <ele>92</ele>
        <time>2014-09-17T07:59:56Z</time>
      </trkpt>
      <trkpt lat="47.02721" lon="-0.94847">
        <ele>92.599975585938</ele>
        <time>2014-09-17T07:59:57Z</time>
      </trkpt>
      <trkpt lat="47.02719" lon="-0.94847">
        <ele>93</ele>
        <time>2014-09-17T07:59:58Z</time>
      </trkpt>
      <trkpt lat="47.02715" lon="-0.9484">
        <ele>93</ele>
        <time>2014-09-17T08:00:01Z</time>
      </trkpt>
      <trkpt lat="47.02712" lon="-0.94842">
        <ele>93</ele>
        <time>2014-09-17T08:00:04Z</time>
      </trkpt>
      <trkpt lat="47.02709" lon="-0.94844">
        <ele>93</ele>
        <time>2014-09-17T08:00:09Z</time>
      </trkpt>
      <trkpt lat="47.02695" lon="-0.94854">
        <ele>93</ele>
        <time>2014-09-17T08:00:14Z</time>
      </trkpt>
      <trkpt lat="47.02681" lon="-0.94871">
        <ele>93</ele>
        <time>2014-09-17T08:00:20Z</time>
      </trkpt>
      <trkpt lat="47.02668" lon="-0.94893">
        <ele>93</ele>
        <time>2014-09-17T08:00:26Z</time>
      </trkpt>
      <trkpt lat="47.02648" lon="-0.94931">
        <ele>93</ele>
        <time>2014-09-17T08:00:35Z</time>
      </trkpt>
      <trkpt lat="47.02637" lon="-0.94952">
        <ele>93</ele>
        <time>2014-09-17T08:00:41Z</time>
      </trkpt>
      <trkpt lat="47.02627" lon="-0.94969">
        <ele>93</ele>
        <time>2014-09-17T08:00:47Z</time>
      </trkpt>
      <trkpt lat="47.02623" lon="-0.94973">
        <ele>93</ele>
        <time>2014-09-17T08:00:49Z</time>
      </trkpt>
      <trkpt lat="47.02617" lon="-0.94977">
        <ele>93</ele>
        <time>2014-09-17T08:00:52Z</time>
      </trkpt>
      <trkpt lat="47.02616" lon="-0.94978">
        <ele>93</ele>
        <time>2014-09-17T08:00:57Z</time>
      </trkpt>
      <trkpt lat="47.02616" lon="-0.94978">
        <ele>93</ele>
        <time>2014-09-17T08:01:13Z</time>
      </trkpt>
      <trkpt lat="47.02615" lon="-0.94977">
        <ele>93</ele>
        <time>2014-09-17T08:01:19Z</time>
      </trkpt>
      <trkpt lat="47.02612" lon="-0.9497">
        <ele>93</ele>
        <time>2014-09-17T08:01:21Z</time>
      </trkpt>
      <trkpt lat="47.02609" lon="-0.94954">
        <ele>93</ele>
        <time>2014-09-17T08:01:24Z</time>
      </trkpt>
      <trkpt lat="47.02609" lon="-0.94948">
        <ele>93.400024414062</ele>
        <time>2014-09-17T08:01:25Z</time>
      </trkpt>
      <trkpt lat="47.02608" lon="-0.94943">
        <ele>93.799987792969</ele>
        <time>2014-09-17T08:01:26Z</time>
      </trkpt>
      <trkpt lat="47.02608" lon="-0.94937">
        <ele>94.200012207031</ele>
        <time>2014-09-17T08:01:27Z</time>
      </trkpt>
      <trkpt lat="47.02607" lon="-0.94932">
        <ele>94.599975585938</ele>
        <time>2014-09-17T08:01:28Z</time>
      </trkpt>
      <trkpt lat="47.02607" lon="-0.94926">
        <ele>95</ele>
        <time>2014-09-17T08:01:29Z</time>
      </trkpt>
      <trkpt lat="47.02605" lon="-0.94887">
        <ele>95</ele>
        <time>2014-09-17T08:01:36Z</time>
      </trkpt>
      <trkpt lat="47.02604" lon="-0.94875">
        <ele>95.400024414062</ele>
        <time>2014-09-17T08:01:38Z</time>
      </trkpt>
      <trkpt lat="47.02604" lon="-0.94869">
        <ele>95.799987792969</ele>
        <time>2014-09-17T08:01:39Z</time>
      </trkpt>
      <trkpt lat="47.02604" lon="-0.94864">
        <ele>96.200012207031</ele>
        <time>2014-09-17T08:01:40Z</time>
      </trkpt>
      <trkpt lat="47.02604" lon="-0.94858">
        <ele>96.599975585938</ele>
        <time>2014-09-17T08:01:41Z</time>
      </trkpt>
      <trkpt lat="47.02604" lon="-0.94852">
        <ele>97</ele>
        <time>2014-09-17T08:01:42Z</time>
      </trkpt>
      <trkpt lat="47.02602" lon="-0.94836">
        <ele>97</ele>
        <time>2014-09-17T08:01:45Z</time>
      </trkpt>
      <trkpt lat="47.02594" lon="-0.94823">
        <ele>97</ele>
        <time>2014-09-17T08:01:48Z</time>
      </trkpt>
      <trkpt lat="47.02591" lon="-0.94819">
        <ele>97</ele>
        <time>2014-09-17T08:01:49Z</time>
      </trkpt>
      <trkpt lat="47.02574" lon="-0.94799">
        <ele>97</ele>
        <time>2014-09-17T08:01:55Z</time>
      </trkpt>
      <trkpt lat="47.02571" lon="-0.948">
        <ele>97</ele>
        <time>2014-09-17T08:01:56Z</time>
      </trkpt>
      <trkpt lat="47.02565" lon="-0.94807">
        <ele>97</ele>
        <time>2014-09-17T08:01:58Z</time>
      </trkpt>
      <trkpt lat="47.02543" lon="-0.94836">
        <ele>97</ele>
        <time>2014-09-17T08:02:04Z</time>
      </trkpt>
      <trkpt lat="47.02514" lon="-0.94871">
        <ele>97</ele>
        <time>2014-09-17T08:02:10Z</time>
      </trkpt>
      <trkpt lat="47.02481" lon="-0.94911">
        <ele>97</ele>
        <time>2014-09-17T08:02:17Z</time>
      </trkpt>
      <trkpt lat="47.02442" lon="-0.94955">
        <ele>97</ele>
        <time>2014-09-17T08:02:25Z</time>
      </trkpt>
      <trkpt lat="47.02437" lon="-0.94961">
        <ele>97</ele>
        <time>2014-09-17T08:02:26Z</time>
      </trkpt>
      <trkpt lat="47.02433" lon="-0.94968">
        <ele>96.599975585938</ele>
        <time>2014-09-17T08:02:27Z</time>
      </trkpt>
      <trkpt lat="47.02429" lon="-0.94976">
        <ele>96.200012207031</ele>
        <time>2014-09-17T08:02:28Z</time>
      </trkpt>
      <trkpt lat="47.02426" lon="-0.94984">
        <ele>95.799987792969</ele>
        <time>2014-09-17T08:02:29Z</time>
      </trkpt>
      <trkpt lat="47.02423" lon="-0.94993">
        <ele>95.400024414062</ele>
        <time>2014-09-17T08:02:30Z</time>
      </trkpt>
      <trkpt lat="47.0242" lon="-0.95002">
        <ele>95</ele>
        <time>2014-09-17T08:02:31Z</time>
      </trkpt>
      <trkpt lat="47.02408" lon="-0.95036">
        <ele>95</ele>
        <time>2014-09-17T08:02:35Z</time>
      </trkpt>
      <trkpt lat="47.024" lon="-0.95063">
        <ele>95</ele>
        <time>2014-09-17T08:02:38Z</time>
      </trkpt>
      <trkpt lat="47.02396" lon="-0.95092">
        <ele>95</ele>
        <time>2014-09-17T08:02:41Z</time>
      </trkpt>
      <trkpt lat="47.02392" lon="-0.95141">
        <ele>95</ele>
        <time>2014-09-17T08:02:46Z</time>
      </trkpt>
      <trkpt lat="47.02388" lon="-0.95198">
        <ele>95</ele>
        <time>2014-09-17T08:02:52Z</time>
      </trkpt>
      <trkpt lat="47.02381" lon="-0.95255">
        <ele>95</ele>
        <time>2014-09-17T08:02:58Z</time>
      </trkpt>
      <trkpt lat="47.02374" lon="-0.95319">
        <ele>95.400024414062</ele>
        <time>2014-09-17T08:03:05Z</time>
      </trkpt>
      <trkpt lat="47.02373" lon="-0.95328">
        <ele>95.799987792969</ele>
        <time>2014-09-17T08:03:06Z</time>
      </trkpt>
      <trkpt lat="47.02372" lon="-0.95338">
        <ele>96.200012207031</ele>
        <time>2014-09-17T08:03:07Z</time>
      </trkpt>
      <trkpt lat="47.02371" lon="-0.95348">
        <ele>96.599975585938</ele>
        <time>2014-09-17T08:03:08Z</time>
      </trkpt>
      <trkpt lat="47.02369" lon="-0.95358">
        <ele>97</ele>
        <time>2014-09-17T08:03:09Z</time>
      </trkpt>
      <trkpt lat="47.02363" lon="-0.95386">
        <ele>97</ele>
        <time>2014-09-17T08:03:12Z</time>
      </trkpt>
      <trkpt lat="47.02349" lon="-0.95439">
        <ele>97.599975585938</ele>
        <time>2014-09-17T08:03:19Z</time>
      </trkpt>
      <trkpt lat="47.02347" lon="-0.95446">
        <ele>98</ele>
        <time>2014-09-17T08:03:20Z</time>
      </trkpt>
      <trkpt lat="47.02345" lon="-0.95453">
        <ele>98.400024414062</ele>
        <time>2014-09-17T08:03:21Z</time>
      </trkpt>
      <trkpt lat="47.02343" lon="-0.9546">
        <ele>98.799987792969</ele>
        <time>2014-09-17T08:03:22Z</time>
      </trkpt>
      <trkpt lat="47.02342" lon="-0.95468">
        <ele>99.200012207031</ele>
        <time>2014-09-17T08:03:23Z</time>
      </trkpt>
      <trkpt lat="47.02335" lon="-0.95489">
        <ele>99.200012207031</ele>
        <time>2014-09-17T08:03:26Z</time>
      </trkpt>
      <trkpt lat="47.02316" lon="-0.95557">
        <ele>99.599975585938</ele>
        <time>2014-09-17T08:03:36Z</time>
      </trkpt>
      <trkpt lat="47.02315" lon="-0.95564">
        <ele>100</ele>
        <time>2014-09-17T08:03:37Z</time>
      </trkpt>
      <trkpt lat="47.02313" lon="-0.95571">
        <ele>100.40002441406</ele>
        <time>2014-09-17T08:03:38Z</time>
      </trkpt>
      <trkpt lat="47.02311" lon="-0.95578">
        <ele>100.79998779297</ele>
        <time>2014-09-17T08:03:39Z</time>
      </trkpt>
      <trkpt lat="47.02309" lon="-0.95584">
        <ele>101.40002441406</ele>
        <time>2014-09-17T08:03:40Z</time>
      </trkpt>
      <trkpt lat="47.02297" lon="-0.95625">
        <ele>101.79998779297</ele>
        <time>2014-09-17T08:03:46Z</time>
      </trkpt>
      <trkpt lat="47.02295" lon="-0.95631">
        <ele>102.20001220703</ele>
        <time>2014-09-17T08:03:47Z</time>
      </trkpt>
      <trkpt lat="47.02293" lon="-0.95638">
        <ele>103</ele>
        <time>2014-09-17T08:03:48Z</time>
      </trkpt>
      <trkpt lat="47.02291" lon="-0.95643">
        <ele>103.59997558594</ele>
        <time>2014-09-17T08:03:49Z</time>
      </trkpt>
      <trkpt lat="47.02285" lon="-0.95666">
        <ele>103.59997558594</ele>
        <time>2014-09-17T08:03:53Z</time>
      </trkpt>
      <trkpt lat="47.02283" lon="-0.9567">
        <ele>104</ele>
        <time>2014-09-17T08:03:54Z</time>
      </trkpt>
      <trkpt lat="47.02282" lon="-0.95675">
        <ele>104.40002441406</ele>
        <time>2014-09-17T08:03:55Z</time>
      </trkpt>
      <trkpt lat="47.0228" lon="-0.9568">
        <ele>104.79998779297</ele>
        <time>2014-09-17T08:03:56Z</time>
      </trkpt>
      <trkpt lat="47.02279" lon="-0.95685">
        <ele>105.20001220703</ele>
        <time>2014-09-17T08:03:57Z</time>
      </trkpt>
      <trkpt lat="47.02277" lon="-0.95691">
        <ele>105.59997558594</ele>
        <time>2014-09-17T08:03:58Z</time>
      </trkpt>
      <trkpt lat="47.02274" lon="-0.95702">
        <ele>105.59997558594</ele>
        <time>2014-09-17T08:04:00Z</time>
      </trkpt>
      <trkpt lat="47.02272" lon="-0.95708">
        <ele>105.59997558594</ele>
        <time>2014-09-17T08:04:01Z</time>
      </trkpt>
      <trkpt lat="47.02265" lon="-0.95729">
        <ele>106</ele>
        <time>2014-09-17T08:04:05Z</time>
      </trkpt>
      <trkpt lat="47.02264" lon="-0.95733">
        <ele>106.40002441406</ele>
        <time>2014-09-17T08:04:06Z</time>
      </trkpt>
      <trkpt lat="47.02263" lon="-0.95737">
        <ele>106.79998779297</ele>
        <time>2014-09-17T08:04:07Z</time>
      </trkpt>
      <trkpt lat="47.02261" lon="-0.95742">
        <ele>107.20001220703</ele>
        <time>2014-09-17T08:04:08Z</time>
      </trkpt>
      <trkpt lat="47.0226" lon="-0.95745">
        <ele>107.59997558594</ele>
        <time>2014-09-17T08:04:09Z</time>
      </trkpt>
      <trkpt lat="47.0225" lon="-0.95768">
        <ele>107.59997558594</ele>
        <time>2014-09-17T08:04:15Z</time>
      </trkpt>
      <trkpt lat="47.02238" lon="-0.95797">
        <ele>107.59997558594</ele>
        <time>2014-09-17T08:04:23Z</time>
      </trkpt>
      <trkpt lat="47.02226" lon="-0.95823">
        <ele>107.59997558594</ele>
        <time>2014-09-17T08:04:29Z</time>
      </trkpt>
      <trkpt lat="47.02207" lon="-0.95863">
        <ele>107.59997558594</ele>
        <time>2014-09-17T08:04:37Z</time>
      </trkpt>
      <trkpt lat="47.02188" lon="-0.95897">
        <ele>107.59997558594</ele>
        <time>2014-09-17T08:04:44Z</time>
      </trkpt>
      <trkpt lat="47.02161" lon="-0.95931">
        <ele>107.59997558594</ele>
        <time>2014-09-17T08:04:51Z</time>
      </trkpt>
      <trkpt lat="47.02132" lon="-0.9596">
        <ele>107.59997558594</ele>
        <time>2014-09-17T08:04:57Z</time>
      </trkpt>
      <trkpt lat="47.02116" lon="-0.95976">
        <ele>107.20001220703</ele>
        <time>2014-09-17T08:05:00Z</time>
      </trkpt>
      <trkpt lat="47.0211" lon="-0.95982">
        <ele>106.79998779297</ele>
        <time>2014-09-17T08:05:01Z</time>
      </trkpt>
      <trkpt lat="47.02104" lon="-0.95988">
        <ele>106</ele>
        <time>2014-09-17T08:05:02Z</time>
      </trkpt>
      <trkpt lat="47.02098" lon="-0.95993">
        <ele>105.59997558594</ele>
        <time>2014-09-17T08:05:03Z</time>
      </trkpt>
      <trkpt lat="47.02086" lon="-0.96006">
        <ele>105.59997558594</ele>
        <time>2014-09-17T08:05:05Z</time>
      </trkpt>
      <trkpt lat="47.0208" lon="-0.96013">
        <ele>105.20001220703</ele>
        <time>2014-09-17T08:05:06Z</time>
      </trkpt>
      <trkpt lat="47.02073" lon="-0.96019">
        <ele>104.59997558594</ele>
        <time>2014-09-17T08:05:07Z</time>
      </trkpt>
      <trkpt lat="47.02067" lon="-0.96025">
        <ele>104.20001220703</ele>
        <time>2014-09-17T08:05:08Z</time>
      </trkpt>
      <trkpt lat="47.0206" lon="-0.96032">
        <ele>103.79998779297</ele>
        <time>2014-09-17T08:05:09Z</time>
      </trkpt>
      <trkpt lat="47.02053" lon="-0.96038">
        <ele>103.40002441406</ele>
        <time>2014-09-17T08:05:10Z</time>
      </trkpt>
      <trkpt lat="47.02039" lon="-0.96052">
        <ele>103</ele>
        <time>2014-09-17T08:05:12Z</time>
      </trkpt>
      <trkpt lat="47.02032" lon="-0.96059">
        <ele>102.40002441406</ele>
        <time>2014-09-17T08:05:13Z</time>
      </trkpt>
      <trkpt lat="47.02025" lon="-0.96066">
        <ele>102</ele>
        <time>2014-09-17T08:05:14Z</time>
      </trkpt>
      <trkpt lat="47.02019" lon="-0.96074">
        <ele>101.59997558594</ele>
        <time>2014-09-17T08:05:15Z</time>
      </trkpt>
      <trkpt lat="47.02013" lon="-0.96082">
        <ele>101.20001220703</ele>
        <time>2014-09-17T08:05:16Z</time>
      </trkpt>
      <trkpt lat="47.02008" lon="-0.96091">
        <ele>101.20001220703</ele>
        <time>2014-09-17T08:05:17Z</time>
      </trkpt>
      <trkpt lat="47.02003" lon="-0.961">
        <ele>101.20001220703</ele>
        <time>2014-09-17T08:05:18Z</time>
      </trkpt>
      <trkpt lat="47.01991" lon="-0.96128">
        <ele>101.20001220703</ele>
        <time>2014-09-17T08:05:21Z</time>
      </trkpt>
      <trkpt lat="47.01987" lon="-0.96137">
        <ele>100.79998779297</ele>
        <time>2014-09-17T08:05:22Z</time>
      </trkpt>
      <trkpt lat="47.01983" lon="-0.96146">
        <ele>100.40002441406</ele>
        <time>2014-09-17T08:05:23Z</time>
      </trkpt>
      <trkpt lat="47.0198" lon="-0.96156">
        <ele>100</ele>
        <time>2014-09-17T08:05:24Z</time>
      </trkpt>
      <trkpt lat="47.01976" lon="-0.96165">
        <ele>99.599975585938</ele>
        <time>2014-09-17T08:05:25Z</time>
      </trkpt>
      <trkpt lat="47.01973" lon="-0.96174">
        <ele>99.200012207031</ele>
        <time>2014-09-17T08:05:26Z</time>
      </trkpt>
      <trkpt lat="47.01959" lon="-0.96206">
        <ele>99.200012207031</ele>
        <time>2014-09-17T08:05:30Z</time>
      </trkpt>
      <trkpt lat="47.01941" lon="-0.96255">
        <ele>99.200012207031</ele>
        <time>2014-09-17T08:05:37Z</time>
      </trkpt>
      <trkpt lat="47.01921" lon="-0.9631">
        <ele>99.200012207031</ele>
        <time>2014-09-17T08:05:45Z</time>
      </trkpt>
      <trkpt lat="47.01902" lon="-0.96367">
        <ele>99.599975585938</ele>
        <time>2014-09-17T08:05:53Z</time>
      </trkpt>
      <trkpt lat="47.019" lon="-0.96374">
        <ele>100</ele>
        <time>2014-09-17T08:05:54Z</time>
      </trkpt>
      <trkpt lat="47.01898" lon="-0.96381">
        <ele>100.40002441406</ele>
        <time>2014-09-17T08:05:55Z</time>
      </trkpt>
      <trkpt lat="47.01896" lon="-0.96388">
        <ele>100.79998779297</ele>
        <time>2014-09-17T08:05:56Z</time>
      </trkpt>
      <trkpt lat="47.01894" lon="-0.96394">
        <ele>101.20001220703</ele>
        <time>2014-09-17T08:05:57Z</time>
      </trkpt>
      <trkpt lat="47.01886" lon="-0.96419">
        <ele>101.20001220703</ele>
        <time>2014-09-17T08:06:01Z</time>
      </trkpt>
      <trkpt lat="47.01872" lon="-0.96454">
        <ele>101.79998779297</ele>
        <time>2014-09-17T08:06:07Z</time>
      </trkpt>
      <trkpt lat="47.01869" lon="-0.9646">
        <ele>102.20001220703</ele>
        <time>2014-09-17T08:06:08Z</time>
      </trkpt>
      <trkpt lat="47.01866" lon="-0.96465">
        <ele>102.59997558594</ele>
        <time>2014-09-17T08:06:09Z</time>
      </trkpt>
      <trkpt lat="47.01863" lon="-0.9647">
        <ele>103</ele>
        <time>2014-09-17T08:06:10Z</time>
      </trkpt>
      <trkpt lat="47.01861" lon="-0.96475">
        <ele>103.40002441406</ele>
        <time>2014-09-17T08:06:11Z</time>
      </trkpt>
      <trkpt lat="47.01851" lon="-0.9649">
        <ele>103.40002441406</ele>
        <time>2014-09-17T08:06:15Z</time>
      </trkpt>
      <trkpt lat="47.01835" lon="-0.9652">
        <ele>103.40002441406</ele>
        <time>2014-09-17T08:06:23Z</time>
      </trkpt>
      <trkpt lat="47.01834" lon="-0.96526">
        <ele>103.79998779297</ele>
        <time>2014-09-17T08:06:25Z</time>
      </trkpt>
      <trkpt lat="47.01834" lon="-0.96529">
        <ele>104.20001220703</ele>
        <time>2014-09-17T08:06:26Z</time>
      </trkpt>
      <trkpt lat="47.01833" lon="-0.96531">
        <ele>104.59997558594</ele>
        <time>2014-09-17T08:06:27Z</time>
      </trkpt>
      <trkpt lat="47.01832" lon="-0.96534">
        <ele>105</ele>
        <time>2014-09-17T08:06:28Z</time>
      </trkpt>
      <trkpt lat="47.01831" lon="-0.96536">
        <ele>105.59997558594</ele>
        <time>2014-09-17T08:06:29Z</time>
      </trkpt>
      <trkpt lat="47.01827" lon="-0.96549">
        <ele>105.59997558594</ele>
        <time>2014-09-17T08:06:35Z</time>
      </trkpt>
      <trkpt lat="47.0182" lon="-0.96573">
        <ele>105.59997558594</ele>
        <time>2014-09-17T08:06:42Z</time>
      </trkpt>
      <trkpt lat="47.01809" lon="-0.96597">
        <ele>105.59997558594</ele>
        <time>2014-09-17T08:06:49Z</time>
      </trkpt>
      <trkpt lat="47.01807" lon="-0.966">
        <ele>106</ele>
        <time>2014-09-17T08:06:50Z</time>
      </trkpt>
      <trkpt lat="47.01804" lon="-0.96602">
        <ele>106.40002441406</ele>
        <time>2014-09-17T08:06:51Z</time>
      </trkpt>
      <trkpt lat="47.01802" lon="-0.96605">
        <ele>106.79998779297</ele>
        <time>2014-09-17T08:06:52Z</time>
      </trkpt>
      <trkpt lat="47.018" lon="-0.96608">
        <ele>107.20001220703</ele>
        <time>2014-09-17T08:06:53Z</time>
      </trkpt>
      <trkpt lat="47.01799" lon="-0.96611">
        <ele>107.59997558594</ele>
        <time>2014-09-17T08:06:54Z</time>
      </trkpt>
      <trkpt lat="47.01795" lon="-0.96615">
        <ele>107.59997558594</ele>
        <time>2014-09-17T08:06:56Z</time>
      </trkpt>
      <trkpt lat="47.01784" lon="-0.96634">
        <ele>107.59997558594</ele>
        <time>2014-09-17T08:07:02Z</time>
      </trkpt>
      <trkpt lat="47.01772" lon="-0.96652">
        <ele>108</ele>
        <time>2014-09-17T08:07:08Z</time>
      </trkpt>
      <trkpt lat="47.0177" lon="-0.96655">
        <ele>108.40002441406</ele>
        <time>2014-09-17T08:07:09Z</time>
      </trkpt>
      <trkpt lat="47.01768" lon="-0.96657">
        <ele>108.79998779297</ele>
        <time>2014-09-17T08:07:10Z</time>
      </trkpt>
      <trkpt lat="47.01766" lon="-0.9666">
        <ele>109.20001220703</ele>
        <time>2014-09-17T08:07:11Z</time>
      </trkpt>
      <trkpt lat="47.01765" lon="-0.96662">
        <ele>109.59997558594</ele>
        <time>2014-09-17T08:07:12Z</time>
      </trkpt>
      <trkpt lat="47.01763" lon="-0.9667">
        <ele>109.59997558594</ele>
        <time>2014-09-17T08:07:15Z</time>
      </trkpt>
      <trkpt lat="47.01764" lon="-0.96673">
        <ele>109.59997558594</ele>
        <time>2014-09-17T08:07:16Z</time>
      </trkpt>
      <trkpt lat="47.01771" lon="-0.9668">
        <ele>109.59997558594</ele>
        <time>2014-09-17T08:07:19Z</time>
      </trkpt>
      <trkpt lat="47.01789" lon="-0.96703">
        <ele>110</ele>
        <time>2014-09-17T08:07:27Z</time>
      </trkpt>
      <trkpt lat="47.01791" lon="-0.96706">
        <ele>110.40002441406</ele>
        <time>2014-09-17T08:07:28Z</time>
      </trkpt>
      <trkpt lat="47.01793" lon="-0.96708">
        <ele>110.79998779297</ele>
        <time>2014-09-17T08:07:29Z</time>
      </trkpt>
      <trkpt lat="47.01795" lon="-0.96711">
        <ele>111.59997558594</ele>
        <time>2014-09-17T08:07:30Z</time>
      </trkpt>
      <trkpt lat="47.01805" lon="-0.96722">
        <ele>111.59997558594</ele>
        <time>2014-09-17T08:07:35Z</time>
      </trkpt>
      <trkpt lat="47.01822" lon="-0.96745">
        <ele>111.59997558594</ele>
        <time>2014-09-17T08:07:43Z</time>
      </trkpt>
      <trkpt lat="47.01826" lon="-0.9675">
        <ele>112</ele>
        <time>2014-09-17T08:07:45Z</time>
      </trkpt>
      <trkpt lat="47.01827" lon="-0.96752">
        <ele>112.40002441406</ele>
        <time>2014-09-17T08:07:46Z</time>
      </trkpt>
      <trkpt lat="47.01829" lon="-0.96754">
        <ele>112.79998779297</ele>
        <time>2014-09-17T08:07:47Z</time>
      </trkpt>
      <trkpt lat="47.01831" lon="-0.96756">
        <ele>113.20001220703</ele>
        <time>2014-09-17T08:07:48Z</time>
      </trkpt>
      <trkpt lat="47.01833" lon="-0.96758">
        <ele>113.59997558594</ele>
        <time>2014-09-17T08:07:49Z</time>
      </trkpt>
      <trkpt lat="47.01835" lon="-0.96761">
        <ele>113.59997558594</ele>
        <time>2014-09-17T08:07:50Z</time>
      </trkpt>
      <trkpt lat="47.01848" lon="-0.96778">
        <ele>113.59997558594</ele>
        <time>2014-09-17T08:07:56Z</time>
      </trkpt>
      <trkpt lat="47.01862" lon="-0.96795">
        <ele>113.59997558594</ele>
        <time>2014-09-17T08:08:03Z</time>
      </trkpt>
      <trkpt lat="47.01863" lon="-0.96811">
        <ele>113.59997558594</ele>
        <time>2014-09-17T08:08:08Z</time>
      </trkpt>
      <trkpt lat="47.01852" lon="-0.96827">
        <ele>113.59997558594</ele>
        <time>2014-09-17T08:08:13Z</time>
      </trkpt>
      <trkpt lat="47.01837" lon="-0.96851">
        <ele>113.59997558594</ele>
        <time>2014-09-17T08:08:20Z</time>
      </trkpt>
      <trkpt lat="47.01832" lon="-0.96859">
        <ele>114</ele>
        <time>2014-09-17T08:08:23Z</time>
      </trkpt>
      <trkpt lat="47.0183" lon="-0.96862">
        <ele>114.40002441406</ele>
        <time>2014-09-17T08:08:24Z</time>
      </trkpt>
      <trkpt lat="47.01827" lon="-0.96865">
        <ele>114.79998779297</ele>
        <time>2014-09-17T08:08:25Z</time>
      </trkpt>
      <trkpt lat="47.01825" lon="-0.96869">
        <ele>115.20001220703</ele>
        <time>2014-09-17T08:08:26Z</time>
      </trkpt>
      <trkpt lat="47.01822" lon="-0.96872">
        <ele>115.59997558594</ele>
        <time>2014-09-17T08:08:27Z</time>
      </trkpt>
      <trkpt lat="47.01806" lon="-0.96894">
        <ele>115.59997558594</ele>
        <time>2014-09-17T08:08:33Z</time>
      </trkpt>
      <trkpt lat="47.01786" lon="-0.96922">
        <ele>115.59997558594</ele>
        <time>2014-09-17T08:08:41Z</time>
      </trkpt>
      <trkpt lat="47.01771" lon="-0.96946">
        <ele>115.59997558594</ele>
        <time>2014-09-17T08:08:48Z</time>
      </trkpt>
      <trkpt lat="47.0176" lon="-0.96976">
        <ele>115.59997558594</ele>
        <time>2014-09-17T08:08:54Z</time>
      </trkpt>
      <trkpt lat="47.01754" lon="-0.96989">
        <ele>115.59997558594</ele>
        <time>2014-09-17T08:08:58Z</time>
      </trkpt>
      <trkpt lat="47.01753" lon="-0.96998">
        <ele>115.59997558594</ele>
        <time>2014-09-17T08:09:03Z</time>
      </trkpt>
      <trkpt lat="47.01772" lon="-0.97002">
        <ele>115.59997558594</ele>
        <time>2014-09-17T08:09:07Z</time>
      </trkpt>
      <trkpt lat="47.01795" lon="-0.97009">
        <ele>115.59997558594</ele>
        <time>2014-09-17T08:09:13Z</time>
      </trkpt>
      <trkpt lat="47.01821" lon="-0.97015">
        <ele>115.59997558594</ele>
        <time>2014-09-17T08:09:19Z</time>
      </trkpt>
      <trkpt lat="47.01838" lon="-0.97021">
        <ele>115.59997558594</ele>
        <time>2014-09-17T08:09:25Z</time>
      </trkpt>
      <trkpt lat="47.01853" lon="-0.97025">
        <ele>115.20001220703</ele>
        <time>2014-09-17T08:09:32Z</time>
      </trkpt>
      <trkpt lat="47.01856" lon="-0.97026">
        <ele>114.79998779297</ele>
        <time>2014-09-17T08:09:33Z</time>
      </trkpt>
      <trkpt lat="47.01858" lon="-0.97027">
        <ele>114</ele>
        <time>2014-09-17T08:09:34Z</time>
      </trkpt>
      <trkpt lat="47.01861" lon="-0.97027">
        <ele>113.59997558594</ele>
        <time>2014-09-17T08:09:35Z</time>
      </trkpt>
      <trkpt lat="47.01872" lon="-0.97031">
        <ele>113.59997558594</ele>
        <time>2014-09-17T08:09:39Z</time>
      </trkpt>
      <trkpt lat="47.01891" lon="-0.9704">
        <ele>113.59997558594</ele>
        <time>2014-09-17T08:09:46Z</time>
      </trkpt>
      <trkpt lat="47.01907" lon="-0.97049">
        <ele>113.59997558594</ele>
        <time>2014-09-17T08:09:52Z</time>
      </trkpt>
      <trkpt lat="47.01926" lon="-0.97064">
        <ele>113.59997558594</ele>
        <time>2014-09-17T08:10:00Z</time>
      </trkpt>
      <trkpt lat="47.01948" lon="-0.97085">
        <ele>113.59997558594</ele>
        <time>2014-09-17T08:10:08Z</time>
      </trkpt>
      <trkpt lat="47.01963" lon="-0.97108">
        <ele>113.59997558594</ele>
        <time>2014-09-17T08:10:15Z</time>
      </trkpt>
      <trkpt lat="47.0198" lon="-0.97138">
        <ele>113.59997558594</ele>
        <time>2014-09-17T08:10:23Z</time>
      </trkpt>
      <trkpt lat="47.01982" lon="-0.97142">
        <ele>113.20001220703</ele>
        <time>2014-09-17T08:10:24Z</time>
      </trkpt>
      <trkpt lat="47.01985" lon="-0.97147">
        <ele>112.79998779297</ele>
        <time>2014-09-17T08:10:25Z</time>
      </trkpt>
      <trkpt lat="47.01987" lon="-0.97152">
        <ele>112.40002441406</ele>
        <time>2014-09-17T08:10:26Z</time>
      </trkpt>
      <trkpt lat="47.01989" lon="-0.97158">
        <ele>112</ele>
        <time>2014-09-17T08:10:27Z</time>
      </trkpt>
      <trkpt lat="47.01992" lon="-0.97164">
        <ele>111.59997558594</ele>
        <time>2014-09-17T08:10:28Z</time>
      </trkpt>
      <trkpt lat="47.02005" lon="-0.97191">
        <ele>111.59997558594</ele>
        <time>2014-09-17T08:10:34Z</time>
      </trkpt>
      <trkpt lat="47.02009" lon="-0.97197">
        <ele>111.59997558594</ele>
        <time>2014-09-17T08:10:38Z</time>
      </trkpt>
      <trkpt lat="47.0201" lon="-0.97199">
        <ele>111.59997558594</ele>
        <time>2014-09-17T08:10:44Z</time>
      </trkpt>
      <trkpt lat="47.0201" lon="-0.97202">
        <ele>111.59997558594</ele>
        <time>2014-09-17T08:10:51Z</time>
      </trkpt>
      <trkpt lat="47.02011" lon="-0.97203">
        <ele>111.59997558594</ele>
        <time>2014-09-17T08:10:53Z</time>
      </trkpt>
      <trkpt lat="47.02014" lon="-0.97201">
        <ele>111.59997558594</ele>
        <time>2014-09-17T08:10:55Z</time>
      </trkpt>
      <trkpt lat="47.02018" lon="-0.97202">
        <ele>111.59997558594</ele>
        <time>2014-09-17T08:11:00Z</time>
      </trkpt>
      <trkpt lat="47.02024" lon="-0.97207">
        <ele>111.59997558594</ele>
        <time>2014-09-17T08:11:08Z</time>
      </trkpt>
      <trkpt lat="47.0204" lon="-0.9722">
        <ele>111.59997558594</ele>
        <time>2014-09-17T08:11:16Z</time>
      </trkpt>
      <trkpt lat="47.02054" lon="-0.97238">
        <ele>111.59997558594</ele>
        <time>2014-09-17T08:11:24Z</time>
      </trkpt>
      <trkpt lat="47.0207" lon="-0.97267">
        <ele>111.59997558594</ele>
        <time>2014-09-17T08:11:31Z</time>
      </trkpt>
      <trkpt lat="47.02073" lon="-0.97271">
        <ele>112</ele>
        <time>2014-09-17T08:11:32Z</time>
      </trkpt>
      <trkpt lat="47.02075" lon="-0.97275">
        <ele>112.40002441406</ele>
        <time>2014-09-17T08:11:33Z</time>
      </trkpt>
      <trkpt lat="47.02077" lon="-0.9728">
        <ele>112.79998779297</ele>
        <time>2014-09-17T08:11:34Z</time>
      </trkpt>
      <trkpt lat="47.0208" lon="-0.97284">
        <ele>113.20001220703</ele>
        <time>2014-09-17T08:11:35Z</time>
      </trkpt>
      <trkpt lat="47.02082" lon="-0.97288">
        <ele>113.59997558594</ele>
        <time>2014-09-17T08:11:36Z</time>
      </trkpt>
      <trkpt lat="47.02089" lon="-0.973">
        <ele>113.59997558594</ele>
        <time>2014-09-17T08:11:39Z</time>
      </trkpt>
      <trkpt lat="47.02107" lon="-0.97333">
        <ele>113.59997558594</ele>
        <time>2014-09-17T08:11:48Z</time>
      </trkpt>
      <trkpt lat="47.0212" lon="-0.97355">
        <ele>113.59997558594</ele>
        <time>2014-09-17T08:11:55Z</time>
      </trkpt>
      <trkpt lat="47.02123" lon="-0.97364">
        <ele>114</ele>
        <time>2014-09-17T08:11:58Z</time>
      </trkpt>
      <trkpt lat="47.02124" lon="-0.97366">
        <ele>114.59997558594</ele>
        <time>2014-09-17T08:11:59Z</time>
      </trkpt>
      <trkpt lat="47.02126" lon="-0.97369">
        <ele>115</ele>
        <time>2014-09-17T08:12:00Z</time>
      </trkpt>
      <trkpt lat="47.02128" lon="-0.97372">
        <ele>115.40002441406</ele>
        <time>2014-09-17T08:12:01Z</time>
      </trkpt>
      <trkpt lat="47.02129" lon="-0.97375">
        <ele>115.79998779297</ele>
        <time>2014-09-17T08:12:02Z</time>
      </trkpt>
      <trkpt lat="47.02138" lon="-0.97389">
        <ele>115.79998779297</ele>
        <time>2014-09-17T08:12:08Z</time>
      </trkpt>
      <trkpt lat="47.02147" lon="-0.9741">
        <ele>115.79998779297</ele>
        <time>2014-09-17T08:12:14Z</time>
      </trkpt>
      <trkpt lat="47.02165" lon="-0.97436">
        <ele>115.40002441406</ele>
        <time>2014-09-17T08:12:22Z</time>
      </trkpt>
      <trkpt lat="47.02167" lon="-0.97438">
        <ele>115</ele>
        <time>2014-09-17T08:12:23Z</time>
      </trkpt>
      <trkpt lat="47.0217" lon="-0.97441">
        <ele>114.59997558594</ele>
        <time>2014-09-17T08:12:24Z</time>
      </trkpt>
      <trkpt lat="47.02172" lon="-0.97443">
        <ele>114.20001220703</ele>
        <time>2014-09-17T08:12:25Z</time>
      </trkpt>
      <trkpt lat="47.02175" lon="-0.97445">
        <ele>113.79998779297</ele>
        <time>2014-09-17T08:12:26Z</time>
      </trkpt>
      <trkpt lat="47.0219" lon="-0.97456">
        <ele>113.79998779297</ele>
        <time>2014-09-17T08:12:31Z</time>
      </trkpt>
      <trkpt lat="47.02198" lon="-0.97461">
        <ele>113.20001220703</ele>
        <time>2014-09-17T08:12:33Z</time>
      </trkpt>
      <trkpt lat="47.02202" lon="-0.97465">
        <ele>112.79998779297</ele>
        <time>2014-09-17T08:12:34Z</time>
      </trkpt>
      <trkpt lat="47.02206" lon="-0.97468">
        <ele>112.40002441406</ele>
        <time>2014-09-17T08:12:35Z</time>
      </trkpt>
      <trkpt lat="47.0221" lon="-0.97472">
        <ele>112</ele>
        <time>2014-09-17T08:12:36Z</time>
      </trkpt>
      <trkpt lat="47.02215" lon="-0.97475">
        <ele>111.59997558594</ele>
        <time>2014-09-17T08:12:37Z</time>
      </trkpt>
      <trkpt lat="47.02255" lon="-0.97505">
        <ele>111.59997558594</ele>
        <time>2014-09-17T08:12:46Z</time>
      </trkpt>
      <trkpt lat="47.02286" lon="-0.97528">
        <ele>111.20001220703</ele>
        <time>2014-09-17T08:12:53Z</time>
      </trkpt>
      <trkpt lat="47.02291" lon="-0.97531">
        <ele>110.79998779297</ele>
        <time>2014-09-17T08:12:54Z</time>
      </trkpt>
      <trkpt lat="47.02296" lon="-0.97534">
        <ele>110.40002441406</ele>
        <time>2014-09-17T08:12:55Z</time>
      </trkpt>
      <trkpt lat="47.02301" lon="-0.97537">
        <ele>110</ele>
        <time>2014-09-17T08:12:56Z</time>
      </trkpt>
      <trkpt lat="47.02304" lon="-0.97541">
        <ele>109.59997558594</ele>
        <time>2014-09-17T08:12:57Z</time>
      </trkpt>
      <trkpt lat="47.0231" lon="-0.97549">
        <ele>109.59997558594</ele>
        <time>2014-09-17T08:12:59Z</time>
      </trkpt>
      <trkpt lat="47.02319" lon="-0.97567">
        <ele>109.59997558594</ele>
        <time>2014-09-17T08:13:04Z</time>
      </trkpt>
      <trkpt lat="47.02331" lon="-0.97581">
        <ele>109.59997558594</ele>
        <time>2014-09-17T08:13:08Z</time>
      </trkpt>
      <trkpt lat="47.02337" lon="-0.97584">
        <ele>109.59997558594</ele>
        <time>2014-09-17T08:13:09Z</time>
      </trkpt>
      <trkpt lat="47.02348" lon="-0.97591">
        <ele>109.20001220703</ele>
        <time>2014-09-17T08:13:11Z</time>
      </trkpt>
      <trkpt lat="47.02354" lon="-0.97595">
        <ele>108.79998779297</ele>
        <time>2014-09-17T08:13:12Z</time>
      </trkpt>
      <trkpt lat="47.0236" lon="-0.97598">
        <ele>108.40002441406</ele>
        <time>2014-09-17T08:13:13Z</time>
      </trkpt>
      <trkpt lat="47.02366" lon="-0.97602">
        <ele>108</ele>
        <time>2014-09-17T08:13:14Z</time>
      </trkpt>
      <trkpt lat="47.02372" lon="-0.97605">
        <ele>107.59997558594</ele>
        <time>2014-09-17T08:13:15Z</time>
      </trkpt>
      <trkpt lat="47.02412" lon="-0.97629">
        <ele>107</ele>
        <time>2014-09-17T08:13:21Z</time>
      </trkpt>
      <trkpt lat="47.02419" lon="-0.97633">
        <ele>106.59997558594</ele>
        <time>2014-09-17T08:13:22Z</time>
      </trkpt>
      <trkpt lat="47.02426" lon="-0.97637">
        <ele>106.20001220703</ele>
        <time>2014-09-17T08:13:23Z</time>
      </trkpt>
      <trkpt lat="47.02433" lon="-0.97641">
        <ele>105.79998779297</ele>
        <time>2014-09-17T08:13:24Z</time>
      </trkpt>
      <trkpt lat="47.0244" lon="-0.97645">
        <ele>105.40002441406</ele>
        <time>2014-09-17T08:13:25Z</time>
      </trkpt>
      <trkpt lat="47.02471" lon="-0.9766">
        <ele>105.40002441406</ele>
        <time>2014-09-17T08:13:29Z</time>
      </trkpt>
      <trkpt lat="47.02487" lon="-0.97665">
        <ele>104.79998779297</ele>
        <time>2014-09-17T08:13:31Z</time>
      </trkpt>
      <trkpt lat="47.02496" lon="-0.97667">
        <ele>104.40002441406</ele>
        <time>2014-09-17T08:13:32Z</time>
      </trkpt>
      <trkpt lat="47.02504" lon="-0.97669">
        <ele>104</ele>
        <time>2014-09-17T08:13:33Z</time>
      </trkpt>
      <trkpt lat="47.02512" lon="-0.9767">
        <ele>103.59997558594</ele>
        <time>2014-09-17T08:13:34Z</time>
      </trkpt>
      <trkpt lat="47.02521" lon="-0.97673">
        <ele>103.20001220703</ele>
        <time>2014-09-17T08:13:35Z</time>
      </trkpt>
      <trkpt lat="47.02579" lon="-0.97688">
        <ele>102.79998779297</ele>
        <time>2014-09-17T08:13:42Z</time>
      </trkpt>
      <trkpt lat="47.02587" lon="-0.9769">
        <ele>102.40002441406</ele>
        <time>2014-09-17T08:13:43Z</time>
      </trkpt>
      <trkpt lat="47.02596" lon="-0.97692">
        <ele>102</ele>
        <time>2014-09-17T08:13:44Z</time>
      </trkpt>
      <trkpt lat="47.02604" lon="-0.97695">
        <ele>101.59997558594</ele>
        <time>2014-09-17T08:13:45Z</time>
      </trkpt>
      <trkpt lat="47.02612" lon="-0.97697">
        <ele>101.20001220703</ele>
        <time>2014-09-17T08:13:46Z</time>
      </trkpt>
      <trkpt lat="47.0265" lon="-0.97709">
        <ele>101.20001220703</ele>
        <time>2014-09-17T08:13:51Z</time>
      </trkpt>
      <trkpt lat="47.02698" lon="-0.97728">
        <ele>101.20001220703</ele>
        <time>2014-09-17T08:13:58Z</time>
      </trkpt>
      <trkpt lat="47.02716" lon="-0.97741">
        <ele>101.20001220703</ele>
        <time>2014-09-17T08:14:01Z</time>
      </trkpt>
      <trkpt lat="47.02732" lon="-0.97756">
        <ele>101.59997558594</ele>
        <time>2014-09-17T08:14:04Z</time>
      </trkpt>
      <trkpt lat="47.02738" lon="-0.9776">
        <ele>102</ele>
        <time>2014-09-17T08:14:05Z</time>
      </trkpt>
      <trkpt lat="47.02744" lon="-0.97766">
        <ele>102.40002441406</ele>
        <time>2014-09-17T08:14:06Z</time>
      </trkpt>
      <trkpt lat="47.02749" lon="-0.97771">
        <ele>103.20001220703</ele>
        <time>2014-09-17T08:14:07Z</time>
      </trkpt>
      <trkpt lat="47.0277" lon="-0.97793">
        <ele>103.20001220703</ele>
        <time>2014-09-17T08:14:11Z</time>
      </trkpt>
      <trkpt lat="47.0278" lon="-0.97804">
        <ele>103.59997558594</ele>
        <time>2014-09-17T08:14:13Z</time>
      </trkpt>
      <trkpt lat="47.02786" lon="-0.9781">
        <ele>104</ele>
        <time>2014-09-17T08:14:14Z</time>
      </trkpt>
      <trkpt lat="47.0279" lon="-0.97815">
        <ele>104.40002441406</ele>
        <time>2014-09-17T08:14:15Z</time>
      </trkpt>
      <trkpt lat="47.02796" lon="-0.97821">
        <ele>104.79998779297</ele>
        <time>2014-09-17T08:14:16Z</time>
      </trkpt>
      <trkpt lat="47.028" lon="-0.97826">
        <ele>105.20001220703</ele>
        <time>2014-09-17T08:14:17Z</time>
      </trkpt>
      <trkpt lat="47.02805" lon="-0.97831">
        <ele>105.20001220703</ele>
        <time>2014-09-17T08:14:18Z</time>
      </trkpt>
      <trkpt lat="47.0282" lon="-0.97847">
        <ele>105.79998779297</ele>
        <time>2014-09-17T08:14:21Z</time>
      </trkpt>
      <trkpt lat="47.02824" lon="-0.97852">
        <ele>106.20001220703</ele>
        <time>2014-09-17T08:14:22Z</time>
      </trkpt>
      <trkpt lat="47.02829" lon="-0.97857">
        <ele>106.59997558594</ele>
        <time>2014-09-17T08:14:23Z</time>
      </trkpt>
      <trkpt lat="47.02832" lon="-0.97863">
        <ele>107</ele>
        <time>2014-09-17T08:14:24Z</time>
      </trkpt>
      <trkpt lat="47.02836" lon="-0.97868">
        <ele>107.40002441406</ele>
        <time>2014-09-17T08:14:25Z</time>
      </trkpt>
      <trkpt lat="47.0284" lon="-0.97874">
        <ele>107.40002441406</ele>
        <time>2014-09-17T08:14:26Z</time>
      </trkpt>
      <trkpt lat="47.02858" lon="-0.97904">
        <ele>107.40002441406</ele>
        <time>2014-09-17T08:14:31Z</time>
      </trkpt>
      <trkpt lat="47.0289" lon="-0.97957">
        <ele>107.40002441406</ele>
        <time>2014-09-17T08:14:40Z</time>
      </trkpt>
      <trkpt lat="47.02914" lon="-0.97995">
        <ele>107.40002441406</ele>
        <time>2014-09-17T08:14:47Z</time>
      </trkpt>
      <trkpt lat="47.02938" lon="-0.98037">
        <ele>107.40002441406</ele>
        <time>2014-09-17T08:14:55Z</time>
      </trkpt>
      <trkpt lat="47.02968" lon="-0.98084">
        <ele>107.40002441406</ele>
        <time>2014-09-17T08:15:04Z</time>
      </trkpt>
      <trkpt lat="47.02991" lon="-0.9812">
        <ele>107.40002441406</ele>
        <time>2014-09-17T08:15:10Z</time>
      </trkpt>
      <trkpt lat="47.02995" lon="-0.98125">
        <ele>107.40002441406</ele>
        <time>2014-09-17T08:15:11Z</time>
      </trkpt>
      <trkpt lat="47.0304" lon="-0.98167">
        <ele>107.40002441406</ele>
        <time>2014-09-17T08:15:20Z</time>
      </trkpt>
      <trkpt lat="47.03055" lon="-0.98181">
        <ele>107.79998779297</ele>
        <time>2014-09-17T08:15:23Z</time>
      </trkpt>
      <trkpt lat="47.0306" lon="-0.98186">
        <ele>108.20001220703</ele>
        <time>2014-09-17T08:15:24Z</time>
      </trkpt>
      <trkpt lat="47.03066" lon="-0.98191">
        <ele>108.79998779297</ele>
        <time>2014-09-17T08:15:25Z</time>
      </trkpt>
      <trkpt lat="47.03071" lon="-0.98196">
        <ele>109.20001220703</ele>
        <time>2014-09-17T08:15:26Z</time>
      </trkpt>
      <trkpt lat="47.03076" lon="-0.98201">
        <ele>109.59997558594</ele>
        <time>2014-09-17T08:15:27Z</time>
      </trkpt>
      <trkpt lat="47.03104" lon="-0.9823">
        <ele>109.59997558594</ele>
        <time>2014-09-17T08:15:33Z</time>
      </trkpt>
      <trkpt lat="47.03129" lon="-0.98258">
        <ele>109.59997558594</ele>
        <time>2014-09-17T08:15:39Z</time>
      </trkpt>
      <trkpt lat="47.03151" lon="-0.98281">
        <ele>110</ele>
        <time>2014-09-17T08:15:44Z</time>
      </trkpt>
      <trkpt lat="47.03155" lon="-0.98285">
        <ele>110.79998779297</ele>
        <time>2014-09-17T08:15:45Z</time>
      </trkpt>
      <trkpt lat="47.03159" lon="-0.98289">
        <ele>111.20001220703</ele>
        <time>2014-09-17T08:15:46Z</time>
      </trkpt>
      <trkpt lat="47.03163" lon="-0.98294">
        <ele>111.59997558594</ele>
        <time>2014-09-17T08:15:47Z</time>
      </trkpt>
      <trkpt lat="47.03177" lon="-0.98307">
        <ele>111.59997558594</ele>
        <time>2014-09-17T08:15:51Z</time>
      </trkpt>
      <trkpt lat="47.03204" lon="-0.98328">
        <ele>111.59997558594</ele>
        <time>2014-09-17T08:15:59Z</time>
      </trkpt>
      <trkpt lat="47.03208" lon="-0.98329">
        <ele>111.59997558594</ele>
        <time>2014-09-17T08:16:00Z</time>
      </trkpt>
      <trkpt lat="47.03228" lon="-0.98334">
        <ele>111.59997558594</ele>
        <time>2014-09-17T08:16:04Z</time>
      </trkpt>
      <trkpt lat="47.0324" lon="-0.98335">
        <ele>111.59997558594</ele>
        <time>2014-09-17T08:16:06Z</time>
      </trkpt>
      <trkpt lat="47.03259" lon="-0.98333">
        <ele>111.20001220703</ele>
        <time>2014-09-17T08:16:09Z</time>
      </trkpt>
      <trkpt lat="47.03265" lon="-0.98332">
        <ele>110.40002441406</ele>
        <time>2014-09-17T08:16:10Z</time>
      </trkpt>
      <trkpt lat="47.03271" lon="-0.98332">
        <ele>110</ele>
        <time>2014-09-17T08:16:11Z</time>
      </trkpt>
      <trkpt lat="47.03277" lon="-0.98331">
        <ele>109.59997558594</ele>
        <time>2014-09-17T08:16:12Z</time>
      </trkpt>
      <trkpt lat="47.03287" lon="-0.9833">
        <ele>109.20001220703</ele>
        <time>2014-09-17T08:16:14Z</time>
      </trkpt>
      <trkpt lat="47.03292" lon="-0.9833">
        <ele>108.59997558594</ele>
        <time>2014-09-17T08:16:15Z</time>
      </trkpt>
      <trkpt lat="47.03296" lon="-0.98329">
        <ele>108.20001220703</ele>
        <time>2014-09-17T08:16:16Z</time>
      </trkpt>
      <trkpt lat="47.03298" lon="-0.98327">
        <ele>107.59997558594</ele>
        <time>2014-09-17T08:16:17Z</time>
      </trkpt>
      <trkpt lat="47.03301" lon="-0.98324">
        <ele>107.20001220703</ele>
        <time>2014-09-17T08:16:18Z</time>
      </trkpt>
      <trkpt lat="47.03302" lon="-0.98319">
        <ele>107.20001220703</ele>
        <time>2014-09-17T08:16:19Z</time>
      </trkpt>
      <trkpt lat="47.03304" lon="-0.98309">
        <ele>106.79998779297</ele>
        <time>2014-09-17T08:16:21Z</time>
      </trkpt>
      <trkpt lat="47.03305" lon="-0.98304">
        <ele>106.40002441406</ele>
        <time>2014-09-17T08:16:22Z</time>
      </trkpt>
      <trkpt lat="47.03307" lon="-0.98299">
        <ele>106</ele>
        <time>2014-09-17T08:16:23Z</time>
      </trkpt>
      <trkpt lat="47.03308" lon="-0.98293">
        <ele>105.59997558594</ele>
        <time>2014-09-17T08:16:24Z</time>
      </trkpt>
      <trkpt lat="47.03309" lon="-0.98286">
        <ele>105.20001220703</ele>
        <time>2014-09-17T08:16:25Z</time>
      </trkpt>
      <trkpt lat="47.03309" lon="-0.98261">
        <ele>104.79998779297</ele>
        <time>2014-09-17T08:16:29Z</time>
      </trkpt>
      <trkpt lat="47.03308" lon="-0.98254">
        <ele>104.40002441406</ele>
        <time>2014-09-17T08:16:30Z</time>
      </trkpt>
      <trkpt lat="47.03307" lon="-0.98248">
        <ele>104</ele>
        <time>2014-09-17T08:16:31Z</time>
      </trkpt>
      <trkpt lat="47.03306" lon="-0.98242">
        <ele>103.59997558594</ele>
        <time>2014-09-17T08:16:32Z</time>
      </trkpt>
      <trkpt lat="47.03305" lon="-0.98236">
        <ele>103.20001220703</ele>
        <time>2014-09-17T08:16:33Z</time>
      </trkpt>
      <trkpt lat="47.03304" lon="-0.9822">
        <ele>103.20001220703</ele>
        <time>2014-09-17T08:16:36Z</time>
      </trkpt>
      <trkpt lat="47.03304" lon="-0.98214">
        <ele>103.20001220703</ele>
        <time>2014-09-17T08:16:37Z</time>
      </trkpt>
      <trkpt lat="47.03311" lon="-0.98193">
        <ele>103.20001220703</ele>
        <time>2014-09-17T08:16:40Z</time>
      </trkpt>
      <trkpt lat="47.03321" lon="-0.98171">
        <ele>102.59997558594</ele>
        <time>2014-09-17T08:16:43Z</time>
      </trkpt>
      <trkpt lat="47.03325" lon="-0.98164">
        <ele>102.20001220703</ele>
        <time>2014-09-17T08:16:44Z</time>
      </trkpt>
      <trkpt lat="47.03329" lon="-0.98157">
        <ele>101.59997558594</ele>
        <time>2014-09-17T08:16:45Z</time>
      </trkpt>
      <trkpt lat="47.03333" lon="-0.9815">
        <ele>101.20001220703</ele>
        <time>2014-09-17T08:16:46Z</time>
      </trkpt>
      <trkpt lat="47.03336" lon="-0.98142">
        <ele>100.79998779297</ele>
        <time>2014-09-17T08:16:47Z</time>
      </trkpt>
      <trkpt lat="47.0334" lon="-0.98135">
        <ele>100.79998779297</ele>
        <time>2014-09-17T08:16:48Z</time>
      </trkpt>
      <trkpt lat="47.03349" lon="-0.98122">
        <ele>100.40002441406</ele>
        <time>2014-09-17T08:16:50Z</time>
      </trkpt>
      <trkpt lat="47.03353" lon="-0.98115">
        <ele>99.799987792969</ele>
        <time>2014-09-17T08:16:51Z</time>
      </trkpt>
      <trkpt lat="47.03356" lon="-0.98107">
        <ele>99.400024414062</ele>
        <time>2014-09-17T08:16:52Z</time>
      </trkpt>
      <trkpt lat="47.0336" lon="-0.981">
        <ele>99</ele>
        <time>2014-09-17T08:16:53Z</time>
      </trkpt>
      <trkpt lat="47.03364" lon="-0.98093">
        <ele>98.599975585938</ele>
        <time>2014-09-17T08:16:54Z</time>
      </trkpt>
      <trkpt lat="47.03387" lon="-0.98043">
        <ele>98.599975585938</ele>
        <time>2014-09-17T08:17:01Z</time>
      </trkpt>
      <trkpt lat="47.0339" lon="-0.98035">
        <ele>98.200012207031</ele>
        <time>2014-09-17T08:17:02Z</time>
      </trkpt>
      <trkpt lat="47.03394" lon="-0.98027">
        <ele>97.799987792969</ele>
        <time>2014-09-17T08:17:03Z</time>
      </trkpt>
      <trkpt lat="47.03396" lon="-0.98018">
        <ele>97.200012207031</ele>
        <time>2014-09-17T08:17:04Z</time>
      </trkpt>
      <trkpt lat="47.03398" lon="-0.9801">
        <ele>96.799987792969</ele>
        <time>2014-09-17T08:17:05Z</time>
      </trkpt>
      <trkpt lat="47.034" lon="-0.98002">
        <ele>96.400024414062</ele>
        <time>2014-09-17T08:17:06Z</time>
      </trkpt>
      <trkpt lat="47.03401" lon="-0.97994">
        <ele>96.400024414062</ele>
        <time>2014-09-17T08:17:07Z</time>
      </trkpt>
      <trkpt lat="47.0341" lon="-0.97972">
        <ele>96.400024414062</ele>
        <time>2014-09-17T08:17:10Z</time>
      </trkpt>
      <trkpt lat="47.03413" lon="-0.97966">
        <ele>96.400024414062</ele>
        <time>2014-09-17T08:17:11Z</time>
      </trkpt>
      <trkpt lat="47.03416" lon="-0.9796">
        <ele>96</ele>
        <time>2014-09-17T08:17:12Z</time>
      </trkpt>
      <trkpt lat="47.03419" lon="-0.97954">
        <ele>95.599975585938</ele>
        <time>2014-09-17T08:17:13Z</time>
      </trkpt>
      <trkpt lat="47.03422" lon="-0.97949">
        <ele>95.200012207031</ele>
        <time>2014-09-17T08:17:14Z</time>
      </trkpt>
      <trkpt lat="47.03425" lon="-0.97943">
        <ele>94.799987792969</ele>
        <time>2014-09-17T08:17:15Z</time>
      </trkpt>
      <trkpt lat="47.03428" lon="-0.97937">
        <ele>94.400024414062</ele>
        <time>2014-09-17T08:17:16Z</time>
      </trkpt>
      <trkpt lat="47.03437" lon="-0.97919">
        <ele>94.400024414062</ele>
        <time>2014-09-17T08:17:19Z</time>
      </trkpt>
      <trkpt lat="47.03457" lon="-0.97884">
        <ele>94.400024414062</ele>
        <time>2014-09-17T08:17:25Z</time>
      </trkpt>
      <trkpt lat="47.03461" lon="-0.97879">
        <ele>94.400024414062</ele>
        <time>2014-09-17T08:17:26Z</time>
      </trkpt>
      <trkpt lat="47.03491" lon="-0.97828">
        <ele>94</ele>
        <time>2014-09-17T08:17:35Z</time>
      </trkpt>
      <trkpt lat="47.03494" lon="-0.97823">
        <ele>93.400024414062</ele>
        <time>2014-09-17T08:17:36Z</time>
      </trkpt>
      <trkpt lat="47.03497" lon="-0.97818">
        <ele>93</ele>
        <time>2014-09-17T08:17:37Z</time>
      </trkpt>
      <trkpt lat="47.035" lon="-0.97813">
        <ele>92.599975585938</ele>
        <time>2014-09-17T08:17:38Z</time>
      </trkpt>
      <trkpt lat="47.03503" lon="-0.97809">
        <ele>92.200012207031</ele>
        <time>2014-09-17T08:17:39Z</time>
      </trkpt>
      <trkpt lat="47.03509" lon="-0.97803">
        <ele>92.200012207031</ele>
        <time>2014-09-17T08:17:41Z</time>
      </trkpt>
      <trkpt lat="47.03518" lon="-0.97797">
        <ele>92.200012207031</ele>
        <time>2014-09-17T08:17:46Z</time>
      </trkpt>
      <trkpt lat="47.03518" lon="-0.97797">
        <ele>91.200012207031</ele>
        <time>2014-09-17T08:17:48Z</time>
      </trkpt>
      <trkpt lat="47.03518" lon="-0.97797">
        <ele>90.200012207031</ele>
        <time>2014-09-17T08:17:49Z</time>
      </trkpt>
      <trkpt lat="47.03518" lon="-0.97797">
        <ele>91</ele>
        <time>2014-09-17T08:17:50Z</time>
      </trkpt>
      <trkpt lat="47.03518" lon="-0.97797">
        <ele>91.799987792969</ele>
        <time>2014-09-17T08:17:51Z</time>
      </trkpt>
      <trkpt lat="47.03518" lon="-0.97797">
        <ele>91.799987792969</ele>
        <time>2014-09-17T08:17:52Z</time>
      </trkpt>
      <trkpt lat="47.03517" lon="-0.97796">
        <ele>91.799987792969</ele>
        <time>2014-09-17T08:17:53Z</time>
      </trkpt>
      <trkpt lat="47.03517" lon="-0.97796">
        <ele>91.599975585938</ele>
        <time>2014-09-17T08:17:54Z</time>
      </trkpt>
      <trkpt lat="47.03517" lon="-0.97796">
        <ele>91.599975585938</ele>
        <time>2014-09-17T08:17:55Z</time>
      </trkpt>
      <trkpt lat="47.03518" lon="-0.97795">
        <ele>91.599975585938</ele>
        <time>2014-09-17T08:17:56Z</time>
      </trkpt>
      <trkpt lat="47.03519" lon="-0.97793">
        <ele>91.599975585938</ele>
        <time>2014-09-17T08:17:57Z</time>
      </trkpt>
      <trkpt lat="47.03523" lon="-0.97785">
        <ele>91.599975585938</ele>
        <time>2014-09-17T08:18:00Z</time>
      </trkpt>
      <trkpt lat="47.03528" lon="-0.97774">
        <ele>91.599975585938</ele>
        <time>2014-09-17T08:18:03Z</time>
      </trkpt>
      <trkpt lat="47.03543" lon="-0.97749">
        <ele>91.599975585938</ele>
        <time>2014-09-17T08:18:09Z</time>
      </trkpt>
      <trkpt lat="47.03565" lon="-0.97712">
        <ele>91.599975585938</ele>
        <time>2014-09-17T08:18:17Z</time>
      </trkpt>
      <trkpt lat="47.03584" lon="-0.97682">
        <ele>91.599975585938</ele>
        <time>2014-09-17T08:18:24Z</time>
      </trkpt>
      <trkpt lat="47.03593" lon="-0.97664">
        <ele>91.599975585938</ele>
        <time>2014-09-17T08:18:30Z</time>
      </trkpt>
      <trkpt lat="47.03594" lon="-0.97659">
        <ele>91.599975585938</ele>
        <time>2014-09-17T08:18:34Z</time>
      </trkpt>
      <trkpt lat="47.03594" lon="-0.97658">
        <ele>90.799987792969</ele>
        <time>2014-09-17T08:18:35Z</time>
      </trkpt>
      <trkpt lat="47.03594" lon="-0.97657">
        <ele>91</ele>
        <time>2014-09-17T08:18:36Z</time>
      </trkpt>
      <trkpt lat="47.03594" lon="-0.97657">
        <ele>91.599975585938</ele>
        <time>2014-09-17T08:18:37Z</time>
      </trkpt>
      <trkpt lat="47.03594" lon="-0.97657">
        <ele>92.799987792969</ele>
        <time>2014-09-17T08:18:38Z</time>
      </trkpt>
      <trkpt lat="47.03594" lon="-0.97657">
        <ele>94</ele>
        <time>2014-09-17T08:18:39Z</time>
      </trkpt>
      <trkpt lat="47.03594" lon="-0.97656">
        <ele>93.799987792969</ele>
        <time>2014-09-17T08:18:40Z</time>
      </trkpt>
      <trkpt lat="47.03594" lon="-0.97655">
        <ele>93.799987792969</ele>
        <time>2014-09-17T08:18:41Z</time>
      </trkpt>
      <trkpt lat="47.03594" lon="-0.97655">
        <ele>93.599975585938</ele>
        <time>2014-09-17T08:18:42Z</time>
      </trkpt>
      <trkpt lat="47.03594" lon="-0.97655">
        <ele>93.400024414062</ele>
        <time>2014-09-17T08:18:43Z</time>
      </trkpt>
      <trkpt lat="47.03594" lon="-0.97655">
        <ele>93.400024414062</ele>
        <time>2014-09-17T08:18:44Z</time>
      </trkpt>
      <trkpt lat="47.03595" lon="-0.97655">
        <ele>93.400024414062</ele>
        <time>2014-09-17T08:18:47Z</time>
      </trkpt>
      <trkpt lat="47.03595" lon="-0.97654">
        <ele>93.400024414062</ele>
        <time>2014-09-17T08:18:48Z</time>
      </trkpt>
      <trkpt lat="47.03597" lon="-0.97652">
        <ele>92.400024414062</ele>
        <time>2014-09-17T08:18:52Z</time>
      </trkpt>
      <trkpt lat="47.03597" lon="-0.97652">
        <ele>92.400024414062</ele>
        <time>2014-09-17T08:18:53Z</time>
      </trkpt>
      <trkpt lat="47.03597" lon="-0.97652">
        <ele>92.200012207031</ele>
        <time>2014-09-17T08:18:54Z</time>
      </trkpt>
      <trkpt lat="47.03597" lon="-0.97651">
        <ele>93</ele>
        <time>2014-09-17T08:18:55Z</time>
      </trkpt>
      <trkpt lat="47.03597" lon="-0.9765">
        <ele>93.200012207031</ele>
        <time>2014-09-17T08:18:56Z</time>
      </trkpt>
      <trkpt lat="47.03597" lon="-0.9765">
        <ele>93.200012207031</ele>
        <time>2014-09-17T08:18:57Z</time>
      </trkpt>
      <trkpt lat="47.03597" lon="-0.9765">
        <ele>93.400024414062</ele>
        <time>2014-09-17T08:18:58Z</time>
      </trkpt>
      <trkpt lat="47.03597" lon="-0.9765">
        <ele>93.400024414062</ele>
        <time>2014-09-17T08:18:59Z</time>
      </trkpt>
      <trkpt lat="47.03597" lon="-0.9765">
        <ele>93.599975585938</ele>
        <time>2014-09-17T08:19:00Z</time>
      </trkpt>
      <trkpt lat="47.03602" lon="-0.97639">
        <ele>93.599975585938</ele>
        <time>2014-09-17T08:19:05Z</time>
      </trkpt>
      <trkpt lat="47.03607" lon="-0.9762">
        <ele>93.599975585938</ele>
        <time>2014-09-17T08:19:11Z</time>
      </trkpt>
      <trkpt lat="47.03614" lon="-0.9759">
        <ele>93.599975585938</ele>
        <time>2014-09-17T08:19:17Z</time>
      </trkpt>
      <trkpt lat="47.03624" lon="-0.97556">
        <ele>93.599975585938</ele>
        <time>2014-09-17T08:19:23Z</time>
      </trkpt>
      <trkpt lat="47.03634" lon="-0.97513">
        <ele>93.599975585938</ele>
        <time>2014-09-17T08:19:29Z</time>
      </trkpt>
      <trkpt lat="47.03636" lon="-0.97497">
        <ele>93.200012207031</ele>
        <time>2014-09-17T08:19:31Z</time>
      </trkpt>
      <trkpt lat="47.03638" lon="-0.97489">
        <ele>92.599975585938</ele>
        <time>2014-09-17T08:19:32Z</time>
      </trkpt>
      <trkpt lat="47.0364" lon="-0.97482">
        <ele>92.200012207031</ele>
        <time>2014-09-17T08:19:33Z</time>
      </trkpt>
      <trkpt lat="47.03642" lon="-0.97475">
        <ele>91.799987792969</ele>
        <time>2014-09-17T08:19:34Z</time>
      </trkpt>
      <trkpt lat="47.03644" lon="-0.97468">
        <ele>91.200012207031</ele>
        <time>2014-09-17T08:19:35Z</time>
      </trkpt>
      <trkpt lat="47.03665" lon="-0.97419">
        <ele>91.200012207031</ele>
        <time>2014-09-17T08:19:43Z</time>
      </trkpt>
      <trkpt lat="47.03681" lon="-0.97388">
        <ele>90.799987792969</ele>
        <time>2014-09-17T08:19:48Z</time>
      </trkpt>
      <trkpt lat="47.03683" lon="-0.97381">
        <ele>90.400024414062</ele>
        <time>2014-09-17T08:19:49Z</time>
      </trkpt>
      <trkpt lat="47.03685" lon="-0.97375">
        <ele>90</ele>
        <time>2014-09-17T08:19:50Z</time>
      </trkpt>
      <trkpt lat="47.03687" lon="-0.97368">
        <ele>89.599975585938</ele>
        <time>2014-09-17T08:19:51Z</time>
      </trkpt>
      <trkpt lat="47.03688" lon="-0.97361">
        <ele>89.200012207031</ele>
        <time>2014-09-17T08:19:52Z</time>
      </trkpt>
      <trkpt lat="47.03691" lon="-0.97347">
        <ele>89.200012207031</ele>
        <time>2014-09-17T08:19:54Z</time>
      </trkpt>
      <trkpt lat="47.03702" lon="-0.97307">
        <ele>88.799987792969</ele>
        <time>2014-09-17T08:20:00Z</time>
      </trkpt>
      <trkpt lat="47.03704" lon="-0.973">
        <ele>88.400024414062</ele>
        <time>2014-09-17T08:20:01Z</time>
      </trkpt>
      <trkpt lat="47.03706" lon="-0.97293">
        <ele>88</ele>
        <time>2014-09-17T08:20:02Z</time>
      </trkpt>
      <trkpt lat="47.03708" lon="-0.97286">
        <ele>87.599975585938</ele>
        <time>2014-09-17T08:20:03Z</time>
      </trkpt>
      <trkpt lat="47.0371" lon="-0.9728">
        <ele>87.200012207031</ele>
        <time>2014-09-17T08:20:04Z</time>
      </trkpt>
      <trkpt lat="47.0372" lon="-0.97237">
        <ele>87.200012207031</ele>
        <time>2014-09-17T08:20:10Z</time>
      </trkpt>
      <trkpt lat="47.03723" lon="-0.97222">
        <ele>86.799987792969</ele>
        <time>2014-09-17T08:20:12Z</time>
      </trkpt>
      <trkpt lat="47.03725" lon="-0.97213">
        <ele>86.400024414062</ele>
        <time>2014-09-17T08:20:13Z</time>
      </trkpt>
      <trkpt lat="47.03727" lon="-0.97205">
        <ele>85.799987792969</ele>
        <time>2014-09-17T08:20:14Z</time>
      </trkpt>
      <trkpt lat="47.03729" lon="-0.97197">
        <ele>85.400024414062</ele>
        <time>2014-09-17T08:20:15Z</time>
      </trkpt>
      <trkpt lat="47.0373" lon="-0.97189">
        <ele>85</ele>
        <time>2014-09-17T08:20:16Z</time>
      </trkpt>
      <trkpt lat="47.03736" lon="-0.97147">
        <ele>85</ele>
        <time>2014-09-17T08:20:22Z</time>
      </trkpt>
      <trkpt lat="47.0374" lon="-0.97119">
        <ele>85</ele>
        <time>2014-09-17T08:20:27Z</time>
      </trkpt>
      <trkpt lat="47.03752" lon="-0.97081">
        <ele>84.599975585938</ele>
        <time>2014-09-17T08:20:34Z</time>
      </trkpt>
      <trkpt lat="47.03753" lon="-0.97076">
        <ele>84.200012207031</ele>
        <time>2014-09-17T08:20:35Z</time>
      </trkpt>
      <trkpt lat="47.03755" lon="-0.97072">
        <ele>83.799987792969</ele>
        <time>2014-09-17T08:20:36Z</time>
      </trkpt>
      <trkpt lat="47.03756" lon="-0.97067">
        <ele>83.400024414062</ele>
        <time>2014-09-17T08:20:37Z</time>
      </trkpt>
      <trkpt lat="47.03758" lon="-0.97063">
        <ele>83</ele>
        <time>2014-09-17T08:20:38Z</time>
      </trkpt>
      <trkpt lat="47.03763" lon="-0.97049">
        <ele>83</ele>
        <time>2014-09-17T08:20:41Z</time>
      </trkpt>
      <trkpt lat="47.03778" lon="-0.97021">
        <ele>83</ele>
        <time>2014-09-17T08:20:46Z</time>
      </trkpt>
      <trkpt lat="47.0379" lon="-0.96994">
        <ele>83</ele>
        <time>2014-09-17T08:20:52Z</time>
      </trkpt>
      <trkpt lat="47.03798" lon="-0.96965">
        <ele>83</ele>
        <time>2014-09-17T08:20:59Z</time>
      </trkpt>
      <trkpt lat="47.03813" lon="-0.96922">
        <ele>83</ele>
        <time>2014-09-17T08:21:06Z</time>
      </trkpt>
      <trkpt lat="47.03831" lon="-0.96897">
        <ele>83</ele>
        <time>2014-09-17T08:21:12Z</time>
      </trkpt>
      <trkpt lat="47.03844" lon="-0.96887">
        <ele>83.400024414062</ele>
        <time>2014-09-17T08:21:16Z</time>
      </trkpt>
      <trkpt lat="47.03847" lon="-0.96886">
        <ele>83.799987792969</ele>
        <time>2014-09-17T08:21:17Z</time>
      </trkpt>
      <trkpt lat="47.0385" lon="-0.96886">
        <ele>84.200012207031</ele>
        <time>2014-09-17T08:21:18Z</time>
      </trkpt>
      <trkpt lat="47.03853" lon="-0.96885">
        <ele>84.599975585938</ele>
        <time>2014-09-17T08:21:19Z</time>
      </trkpt>
      <trkpt lat="47.03857" lon="-0.96884">
        <ele>85</ele>
        <time>2014-09-17T08:21:20Z</time>
      </trkpt>
      <trkpt lat="47.03864" lon="-0.96879">
        <ele>85.599975585938</ele>
        <time>2014-09-17T08:21:23Z</time>
      </trkpt>
      <trkpt lat="47.03866" lon="-0.96877">
        <ele>86</ele>
        <time>2014-09-17T08:21:24Z</time>
      </trkpt>
      <trkpt lat="47.03867" lon="-0.96873">
        <ele>86.599975585938</ele>
        <time>2014-09-17T08:21:25Z</time>
      </trkpt>
      <trkpt lat="47.03867" lon="-0.96869">
        <ele>87</ele>
        <time>2014-09-17T08:21:26Z</time>
      </trkpt>
      <trkpt lat="47.03867" lon="-0.96864">
        <ele>87.400024414062</ele>
        <time>2014-09-17T08:21:27Z</time>
      </trkpt>
      <trkpt lat="47.03871" lon="-0.96847">
        <ele>87.400024414062</ele>
        <time>2014-09-17T08:21:31Z</time>
      </trkpt>
      <trkpt lat="47.03873" lon="-0.96843">
        <ele>87.799987792969</ele>
        <time>2014-09-17T08:21:32Z</time>
      </trkpt>
      <trkpt lat="47.03875" lon="-0.9684">
        <ele>88.400024414062</ele>
        <time>2014-09-17T08:21:33Z</time>
      </trkpt>
      <trkpt lat="47.03878" lon="-0.96837">
        <ele>88.799987792969</ele>
        <time>2014-09-17T08:21:34Z</time>
      </trkpt>
      <trkpt lat="47.03879" lon="-0.96834">
        <ele>89.200012207031</ele>
        <time>2014-09-17T08:21:35Z</time>
      </trkpt>
      <trkpt lat="47.03881" lon="-0.9683">
        <ele>89.599975585938</ele>
        <time>2014-09-17T08:21:36Z</time>
      </trkpt>
      <trkpt lat="47.03885" lon="-0.96825">
        <ele>89.599975585938</ele>
        <time>2014-09-17T08:21:38Z</time>
      </trkpt>
      <trkpt lat="47.03897" lon="-0.96804">
        <ele>89.599975585938</ele>
        <time>2014-09-17T08:21:45Z</time>
      </trkpt>
      <trkpt lat="47.03902" lon="-0.96795">
        <ele>90</ele>
        <time>2014-09-17T08:21:48Z</time>
      </trkpt>
      <trkpt lat="47.03904" lon="-0.96792">
        <ele>90.400024414062</ele>
        <time>2014-09-17T08:21:49Z</time>
      </trkpt>
      <trkpt lat="47.03906" lon="-0.9679">
        <ele>90.799987792969</ele>
        <time>2014-09-17T08:21:50Z</time>
      </trkpt>
      <trkpt lat="47.03908" lon="-0.96787">
        <ele>91.200012207031</ele>
        <time>2014-09-17T08:21:51Z</time>
      </trkpt>
      <trkpt lat="47.0391" lon="-0.96784">
        <ele>91.599975585938</ele>
        <time>2014-09-17T08:21:52Z</time>
      </trkpt>
      <trkpt lat="47.03913" lon="-0.96778">
        <ele>91.599975585938</ele>
        <time>2014-09-17T08:21:54Z</time>
      </trkpt>
      <trkpt lat="47.03921" lon="-0.96758">
        <ele>92</ele>
        <time>2014-09-17T08:22:00Z</time>
      </trkpt>
      <trkpt lat="47.03923" lon="-0.96754">
        <ele>92.400024414062</ele>
        <time>2014-09-17T08:22:01Z</time>
      </trkpt>
      <trkpt lat="47.03925" lon="-0.96751">
        <ele>92.799987792969</ele>
        <time>2014-09-17T08:22:02Z</time>
      </trkpt>
      <trkpt lat="47.03926" lon="-0.96748">
        <ele>93.200012207031</ele>
        <time>2014-09-17T08:22:03Z</time>
      </trkpt>
      <trkpt lat="47.03928" lon="-0.96745">
        <ele>93.599975585938</ele>
        <time>2014-09-17T08:22:04Z</time>
      </trkpt>
      <trkpt lat="47.03933" lon="-0.96739">
        <ele>93.599975585938</ele>
        <time>2014-09-17T08:22:07Z</time>
      </trkpt>
      <trkpt lat="47.03938" lon="-0.96726">
        <ele>93.599975585938</ele>
        <time>2014-09-17T08:22:13Z</time>
      </trkpt>
      <trkpt lat="47.03938" lon="-0.96723">
        <ele>94</ele>
        <time>2014-09-17T08:22:14Z</time>
      </trkpt>
      <trkpt lat="47.03939" lon="-0.96721">
        <ele>94.400024414062</ele>
        <time>2014-09-17T08:22:15Z</time>
      </trkpt>
      <trkpt lat="47.03939" lon="-0.96718">
        <ele>94.799987792969</ele>
        <time>2014-09-17T08:22:16Z</time>
      </trkpt>
      <trkpt lat="47.03939" lon="-0.96716">
        <ele>95.200012207031</ele>
        <time>2014-09-17T08:22:17Z</time>
      </trkpt>
      <trkpt lat="47.0394" lon="-0.96714">
        <ele>95.599975585938</ele>
        <time>2014-09-17T08:22:18Z</time>
      </trkpt>
      <trkpt lat="47.03942" lon="-0.9671">
        <ele>95.599975585938</ele>
        <time>2014-09-17T08:22:20Z</time>
      </trkpt>
      <trkpt lat="47.03951" lon="-0.96694">
        <ele>95.599975585938</ele>
        <time>2014-09-17T08:22:27Z</time>
      </trkpt>
      <trkpt lat="47.03962" lon="-0.96677">
        <ele>95.599975585938</ele>
        <time>2014-09-17T08:22:35Z</time>
      </trkpt>
      <trkpt lat="47.03967" lon="-0.96664">
        <ele>96</ele>
        <time>2014-09-17T08:22:40Z</time>
      </trkpt>
      <trkpt lat="47.03969" lon="-0.96662">
        <ele>96.400024414062</ele>
        <time>2014-09-17T08:22:41Z</time>
      </trkpt>
      <trkpt lat="47.0397" lon="-0.9666">
        <ele>96.799987792969</ele>
        <time>2014-09-17T08:22:42Z</time>
      </trkpt>
      <trkpt lat="47.03972" lon="-0.96657">
        <ele>97.200012207031</ele>
        <time>2014-09-17T08:22:43Z</time>
      </trkpt>
      <trkpt lat="47.03973" lon="-0.96655">
        <ele>97.599975585938</ele>
        <time>2014-09-17T08:22:44Z</time>
      </trkpt>
      <trkpt lat="47.03982" lon="-0.96639">
        <ele>97.599975585938</ele>
        <time>2014-09-17T08:22:50Z</time>
      </trkpt>
      <trkpt lat="47.0399" lon="-0.96623">
        <ele>97.599975585938</ele>
        <time>2014-09-17T08:22:57Z</time>
      </trkpt>
      <trkpt lat="47.03995" lon="-0.96614">
        <ele>97.599975585938</ele>
        <time>2014-09-17T08:23:01Z</time>
      </trkpt>
      <trkpt lat="47.03996" lon="-0.96612">
        <ele>97.599975585938</ele>
        <time>2014-09-17T08:23:02Z</time>
      </trkpt>
      <trkpt lat="47.04004" lon="-0.96596">
        <ele>97.599975585938</ele>
        <time>2014-09-17T08:23:08Z</time>
      </trkpt>
      <trkpt lat="47.04019" lon="-0.96571">
        <ele>97.599975585938</ele>
        <time>2014-09-17T08:23:15Z</time>
      </trkpt>
      <trkpt lat="47.04036" lon="-0.96545">
        <ele>97.599975585938</ele>
        <time>2014-09-17T08:23:21Z</time>
      </trkpt>
      <trkpt lat="47.04065" lon="-0.96499">
        <ele>97.599975585938</ele>
        <time>2014-09-17T08:23:30Z</time>
      </trkpt>
      <trkpt lat="47.04089" lon="-0.96459">
        <ele>97.599975585938</ele>
        <time>2014-09-17T08:23:38Z</time>
      </trkpt>
      <trkpt lat="47.04112" lon="-0.96419">
        <ele>97.599975585938</ele>
        <time>2014-09-17T08:23:46Z</time>
      </trkpt>
      <trkpt lat="47.0413" lon="-0.96374">
        <ele>97.599975585938</ele>
        <time>2014-09-17T08:23:55Z</time>
      </trkpt>
      <trkpt lat="47.04152" lon="-0.96316">
        <ele>97.599975585938</ele>
        <time>2014-09-17T08:24:05Z</time>
      </trkpt>
      <trkpt lat="47.04164" lon="-0.96278">
        <ele>97.599975585938</ele>
        <time>2014-09-17T08:24:12Z</time>
      </trkpt>
      <trkpt lat="47.04178" lon="-0.96235">
        <ele>97.599975585938</ele>
        <time>2014-09-17T08:24:20Z</time>
      </trkpt>
      <trkpt lat="47.04195" lon="-0.96189">
        <ele>97.599975585938</ele>
        <time>2014-09-17T08:24:29Z</time>
      </trkpt>
      <trkpt lat="47.04217" lon="-0.96159">
        <ele>97.200012207031</ele>
        <time>2014-09-17T08:24:36Z</time>
      </trkpt>
      <trkpt lat="47.0422" lon="-0.96155">
        <ele>96.799987792969</ele>
        <time>2014-09-17T08:24:37Z</time>
      </trkpt>
      <trkpt lat="47.04223" lon="-0.96151">
        <ele>96.400024414062</ele>
        <time>2014-09-17T08:24:38Z</time>
      </trkpt>
      <trkpt lat="47.04227" lon="-0.96147">
        <ele>96</ele>
        <time>2014-09-17T08:24:39Z</time>
      </trkpt>
      <trkpt lat="47.0423" lon="-0.96143">
        <ele>95.599975585938</ele>
        <time>2014-09-17T08:24:40Z</time>
      </trkpt>
      <trkpt lat="47.0424" lon="-0.96129">
        <ele>95.599975585938</ele>
        <time>2014-09-17T08:24:44Z</time>
      </trkpt>
      <trkpt lat="47.04252" lon="-0.96116">
        <ele>95.599975585938</ele>
        <time>2014-09-17T08:24:48Z</time>
      </trkpt>
      <trkpt lat="47.04256" lon="-0.96113">
        <ele>95.599975585938</ele>
        <time>2014-09-17T08:24:49Z</time>
      </trkpt>
      <trkpt lat="47.04283" lon="-0.96087">
        <ele>95.599975585938</ele>
        <time>2014-09-17T08:24:55Z</time>
      </trkpt>
      <trkpt lat="47.04315" lon="-0.9605">
        <ele>95.599975585938</ele>
        <time>2014-09-17T08:25:02Z</time>
      </trkpt>
      <trkpt lat="47.04324" lon="-0.96039">
        <ele>95.200012207031</ele>
        <time>2014-09-17T08:25:04Z</time>
      </trkpt>
      <trkpt lat="47.04328" lon="-0.96033">
        <ele>94.799987792969</ele>
        <time>2014-09-17T08:25:05Z</time>
      </trkpt>
      <trkpt lat="47.04332" lon="-0.96027">
        <ele>94.400024414062</ele>
        <time>2014-09-17T08:25:06Z</time>
      </trkpt>
      <trkpt lat="47.04336" lon="-0.9602">
        <ele>94</ele>
        <time>2014-09-17T08:25:07Z</time>
      </trkpt>
      <trkpt lat="47.0434" lon="-0.96014">
        <ele>93.599975585938</ele>
        <time>2014-09-17T08:25:08Z</time>
      </trkpt>
      <trkpt lat="47.04343" lon="-0.96007">
        <ele>93.599975585938</ele>
        <time>2014-09-17T08:25:09Z</time>
      </trkpt>
      <trkpt lat="47.04355" lon="-0.95981">
        <ele>93.599975585938</ele>
        <time>2014-09-17T08:25:13Z</time>
      </trkpt>
      <trkpt lat="47.04362" lon="-0.95959">
        <ele>93.599975585938</ele>
        <time>2014-09-17T08:25:16Z</time>
      </trkpt>
      <trkpt lat="47.04371" lon="-0.95924">
        <ele>94</ele>
        <time>2014-09-17T08:25:21Z</time>
      </trkpt>
      <trkpt lat="47.04372" lon="-0.95917">
        <ele>94.400024414062</ele>
        <time>2014-09-17T08:25:22Z</time>
      </trkpt>
      <trkpt lat="47.04374" lon="-0.95911">
        <ele>94.799987792969</ele>
        <time>2014-09-17T08:25:23Z</time>
      </trkpt>
      <trkpt lat="47.04375" lon="-0.95905">
        <ele>95.200012207031</ele>
        <time>2014-09-17T08:25:24Z</time>
      </trkpt>
      <trkpt lat="47.04376" lon="-0.959">
        <ele>95.599975585938</ele>
        <time>2014-09-17T08:25:25Z</time>
      </trkpt>
      <trkpt lat="47.0438" lon="-0.95877">
        <ele>95.599975585938</ele>
        <time>2014-09-17T08:25:30Z</time>
      </trkpt>
      <trkpt lat="47.04382" lon="-0.95869">
        <ele>96</ele>
        <time>2014-09-17T08:25:32Z</time>
      </trkpt>
      <trkpt lat="47.04382" lon="-0.95865">
        <ele>96.400024414062</ele>
        <time>2014-09-17T08:25:33Z</time>
      </trkpt>
      <trkpt lat="47.04383" lon="-0.95862">
        <ele>97</ele>
        <time>2014-09-17T08:25:34Z</time>
      </trkpt>
      <trkpt lat="47.04384" lon="-0.95858">
        <ele>97.400024414062</ele>
        <time>2014-09-17T08:25:35Z</time>
      </trkpt>
      <trkpt lat="47.04385" lon="-0.95855">
        <ele>97.799987792969</ele>
        <time>2014-09-17T08:25:36Z</time>
      </trkpt>
      <trkpt lat="47.04385" lon="-0.95851">
        <ele>97.799987792969</ele>
        <time>2014-09-17T08:25:37Z</time>
      </trkpt>
      <trkpt lat="47.04388" lon="-0.9582">
        <ele>97.799987792969</ele>
        <time>2014-09-17T08:25:44Z</time>
      </trkpt>
      <trkpt lat="47.04392" lon="-0.95774">
        <ele>97.799987792969</ele>
        <time>2014-09-17T08:25:52Z</time>
      </trkpt>
      <trkpt lat="47.04394" lon="-0.95721">
        <ele>97.799987792969</ele>
        <time>2014-09-17T08:26:01Z</time>
      </trkpt>
      <trkpt lat="47.04394" lon="-0.95684">
        <ele>97.799987792969</ele>
        <time>2014-09-17T08:26:08Z</time>
      </trkpt>
      <trkpt lat="47.04393" lon="-0.95636">
        <ele>97.799987792969</ele>
        <time>2014-09-17T08:26:16Z</time>
      </trkpt>
      <trkpt lat="47.0439" lon="-0.95608">
        <ele>97.799987792969</ele>
        <time>2014-09-17T08:26:20Z</time>
      </trkpt>
      <trkpt lat="47.04389" lon="-0.956">
        <ele>97.799987792969</ele>
        <time>2014-09-17T08:26:21Z</time>
      </trkpt>
      <trkpt lat="47.04391" lon="-0.95564">
        <ele>97.799987792969</ele>
        <time>2014-09-17T08:26:27Z</time>
      </trkpt>
      <trkpt lat="47.04393" lon="-0.95542">
        <ele>97.799987792969</ele>
        <time>2014-09-17T08:26:33Z</time>
      </trkpt>
      <trkpt lat="47.04392" lon="-0.9554">
        <ele>97.799987792969</ele>
        <time>2014-09-17T08:26:34Z</time>
      </trkpt>
      <trkpt lat="47.04388" lon="-0.95536">
        <ele>97.799987792969</ele>
        <time>2014-09-17T08:26:36Z</time>
      </trkpt>
      <trkpt lat="47.0438" lon="-0.95531">
        <ele>97.799987792969</ele>
        <time>2014-09-17T08:26:38Z</time>
      </trkpt>
      <trkpt lat="47.04371" lon="-0.95526">
        <ele>97.799987792969</ele>
        <time>2014-09-17T08:26:40Z</time>
      </trkpt>
      <trkpt lat="47.04357" lon="-0.95518">
        <ele>97.400024414062</ele>
        <time>2014-09-17T08:26:43Z</time>
      </trkpt>
      <trkpt lat="47.04352" lon="-0.95516">
        <ele>97</ele>
        <time>2014-09-17T08:26:44Z</time>
      </trkpt>
      <trkpt lat="47.04347" lon="-0.95513">
        <ele>96.599975585938</ele>
        <time>2014-09-17T08:26:45Z</time>
      </trkpt>
      <trkpt lat="47.04341" lon="-0.95511">
        <ele>96.200012207031</ele>
        <time>2014-09-17T08:26:46Z</time>
      </trkpt>
      <trkpt lat="47.04336" lon="-0.95508">
        <ele>95.799987792969</ele>
        <time>2014-09-17T08:26:47Z</time>
      </trkpt>
      <trkpt lat="47.04299" lon="-0.95492">
        <ele>95.799987792969</ele>
        <time>2014-09-17T08:26:53Z</time>
      </trkpt>
      <trkpt lat="47.04278" lon="-0.95485">
        <ele>95.400024414062</ele>
        <time>2014-09-17T08:26:56Z</time>
      </trkpt>
      <trkpt lat="47.04272" lon="-0.95482">
        <ele>95</ele>
        <time>2014-09-17T08:26:57Z</time>
      </trkpt>
      <trkpt lat="47.04265" lon="-0.95479">
        <ele>94.400024414062</ele>
        <time>2014-09-17T08:26:58Z</time>
      </trkpt>
      <trkpt lat="47.04258" lon="-0.95477">
        <ele>94</ele>
        <time>2014-09-17T08:26:59Z</time>
      </trkpt>
      <trkpt lat="47.04252" lon="-0.95474">
        <ele>93.599975585938</ele>
        <time>2014-09-17T08:27:00Z</time>
      </trkpt>
      <trkpt lat="47.04209" lon="-0.95458">
        <ele>93.599975585938</ele>
        <time>2014-09-17T08:27:07Z</time>
      </trkpt>
      <trkpt lat="47.04162" lon="-0.95435">
        <ele>93.599975585938</ele>
        <time>2014-09-17T08:27:15Z</time>
      </trkpt>
      <trkpt lat="47.0415" lon="-0.95427">
        <ele>93.200012207031</ele>
        <time>2014-09-17T08:27:17Z</time>
      </trkpt>
      <trkpt lat="47.04144" lon="-0.95423">
        <ele>92.599975585938</ele>
        <time>2014-09-17T08:27:18Z</time>
      </trkpt>
      <trkpt lat="47.04138" lon="-0.95418">
        <ele>92.200012207031</ele>
        <time>2014-09-17T08:27:19Z</time>
      </trkpt>
      <trkpt lat="47.04131" lon="-0.95413">
        <ele>91.799987792969</ele>
        <time>2014-09-17T08:27:20Z</time>
      </trkpt>
      <trkpt lat="47.04125" lon="-0.95408">
        <ele>91.400024414062</ele>
        <time>2014-09-17T08:27:21Z</time>
      </trkpt>
      <trkpt lat="47.04105" lon="-0.95394">
        <ele>91</ele>
        <time>2014-09-17T08:27:24Z</time>
      </trkpt>
      <trkpt lat="47.04098" lon="-0.95391">
        <ele>90.400024414062</ele>
        <time>2014-09-17T08:27:25Z</time>
      </trkpt>
      <trkpt lat="47.0409" lon="-0.95388">
        <ele>90</ele>
        <time>2014-09-17T08:27:26Z</time>
      </trkpt>
      <trkpt lat="47.04083" lon="-0.95385">
        <ele>89.599975585938</ele>
        <time>2014-09-17T08:27:27Z</time>
      </trkpt>
      <trkpt lat="47.04075" lon="-0.95383">
        <ele>89.200012207031</ele>
        <time>2014-09-17T08:27:28Z</time>
      </trkpt>
      <trkpt lat="47.04048" lon="-0.95377">
        <ele>89.200012207031</ele>
        <time>2014-09-17T08:27:32Z</time>
      </trkpt>
      <trkpt lat="47.04029" lon="-0.95373">
        <ele>89.599975585938</ele>
        <time>2014-09-17T08:27:35Z</time>
      </trkpt>
      <trkpt lat="47.04024" lon="-0.95372">
        <ele>90.200012207031</ele>
        <time>2014-09-17T08:27:36Z</time>
      </trkpt>
      <trkpt lat="47.04017" lon="-0.95371">
        <ele>90.599975585938</ele>
        <time>2014-09-17T08:27:37Z</time>
      </trkpt>
      <trkpt lat="47.04012" lon="-0.95369">
        <ele>91.200012207031</ele>
        <time>2014-09-17T08:27:38Z</time>
      </trkpt>
      <trkpt lat="47.04006" lon="-0.95367">
        <ele>91.599975585938</ele>
        <time>2014-09-17T08:27:39Z</time>
      </trkpt>
      <trkpt lat="47.03995" lon="-0.95364">
        <ele>92.400024414062</ele>
        <time>2014-09-17T08:27:41Z</time>
      </trkpt>
      <trkpt lat="47.03989" lon="-0.95363">
        <ele>93</ele>
        <time>2014-09-17T08:27:42Z</time>
      </trkpt>
      <trkpt lat="47.03984" lon="-0.95361">
        <ele>93.400024414062</ele>
        <time>2014-09-17T08:27:43Z</time>
      </trkpt>
      <trkpt lat="47.03978" lon="-0.9536">
        <ele>93.799987792969</ele>
        <time>2014-09-17T08:27:44Z</time>
      </trkpt>
      <trkpt lat="47.03969" lon="-0.95357">
        <ele>93.799987792969</ele>
        <time>2014-09-17T08:27:46Z</time>
      </trkpt>
      <trkpt lat="47.03965" lon="-0.95355">
        <ele>94.200012207031</ele>
        <time>2014-09-17T08:27:47Z</time>
      </trkpt>
      <trkpt lat="47.03961" lon="-0.95355">
        <ele>94.599975585938</ele>
        <time>2014-09-17T08:27:48Z</time>
      </trkpt>
      <trkpt lat="47.03957" lon="-0.95353">
        <ele>95</ele>
        <time>2014-09-17T08:27:49Z</time>
      </trkpt>
      <trkpt lat="47.03953" lon="-0.95352">
        <ele>95.400024414062</ele>
        <time>2014-09-17T08:27:50Z</time>
      </trkpt>
      <trkpt lat="47.03949" lon="-0.95351">
        <ele>95.799987792969</ele>
        <time>2014-09-17T08:27:51Z</time>
      </trkpt>
      <trkpt lat="47.03946" lon="-0.9535">
        <ele>95.799987792969</ele>
        <time>2014-09-17T08:27:52Z</time>
      </trkpt>
      <trkpt lat="47.03913" lon="-0.95334">
        <ele>95.799987792969</ele>
        <time>2014-09-17T08:28:00Z</time>
      </trkpt>
      <trkpt lat="47.03886" lon="-0.9531">
        <ele>95.400024414062</ele>
        <time>2014-09-17T08:28:05Z</time>
      </trkpt>
      <trkpt lat="47.03881" lon="-0.95304">
        <ele>95</ele>
        <time>2014-09-17T08:28:06Z</time>
      </trkpt>
      <trkpt lat="47.03876" lon="-0.95296">
        <ele>94.200012207031</ele>
        <time>2014-09-17T08:28:07Z</time>
      </trkpt>
      <trkpt lat="47.0387" lon="-0.95289">
        <ele>93.599975585938</ele>
        <time>2014-09-17T08:28:08Z</time>
      </trkpt>
      <trkpt lat="47.03864" lon="-0.95281">
        <ele>93.200012207031</ele>
        <time>2014-09-17T08:28:09Z</time>
      </trkpt>
      <trkpt lat="47.03857" lon="-0.95272">
        <ele>92.799987792969</ele>
        <time>2014-09-17T08:28:10Z</time>
      </trkpt>
      <trkpt lat="47.0385" lon="-0.95263">
        <ele>92.400024414062</ele>
        <time>2014-09-17T08:28:11Z</time>
      </trkpt>
      <trkpt lat="47.03842" lon="-0.95254">
        <ele>92</ele>
        <time>2014-09-17T08:28:12Z</time>
      </trkpt>
      <trkpt lat="47.03834" lon="-0.95245">
        <ele>91.599975585938</ele>
        <time>2014-09-17T08:28:13Z</time>
      </trkpt>
      <trkpt lat="47.03826" lon="-0.95236">
        <ele>91</ele>
        <time>2014-09-17T08:28:14Z</time>
      </trkpt>
      <trkpt lat="47.03818" lon="-0.95226">
        <ele>90.599975585938</ele>
        <time>2014-09-17T08:28:15Z</time>
      </trkpt>
      <trkpt lat="47.03811" lon="-0.95217">
        <ele>90.200012207031</ele>
        <time>2014-09-17T08:28:16Z</time>
      </trkpt>
      <trkpt lat="47.03803" lon="-0.95207">
        <ele>89.599975585938</ele>
        <time>2014-09-17T08:28:17Z</time>
      </trkpt>
      <trkpt lat="47.03795" lon="-0.95198">
        <ele>89</ele>
        <time>2014-09-17T08:28:18Z</time>
      </trkpt>
      <trkpt lat="47.03787" lon="-0.95188">
        <ele>88.400024414062</ele>
        <time>2014-09-17T08:28:19Z</time>
      </trkpt>
      <trkpt lat="47.03778" lon="-0.95178">
        <ele>87.799987792969</ele>
        <time>2014-09-17T08:28:20Z</time>
      </trkpt>
      <trkpt lat="47.03769" lon="-0.95168">
        <ele>87.200012207031</ele>
        <time>2014-09-17T08:28:21Z</time>
      </trkpt>
      <trkpt lat="47.03761" lon="-0.95158">
        <ele>86.599975585938</ele>
        <time>2014-09-17T08:28:22Z</time>
      </trkpt>
      <trkpt lat="47.03753" lon="-0.95149">
        <ele>85.799987792969</ele>
        <time>2014-09-17T08:28:23Z</time>
      </trkpt>
      <trkpt lat="47.03745" lon="-0.9514">
        <ele>85.400024414062</ele>
        <time>2014-09-17T08:28:24Z</time>
      </trkpt>
      <trkpt lat="47.03738" lon="-0.95131">
        <ele>84.799987792969</ele>
        <time>2014-09-17T08:28:25Z</time>
      </trkpt>
      <trkpt lat="47.0373" lon="-0.95122">
        <ele>84.200012207031</ele>
        <time>2014-09-17T08:28:26Z</time>
      </trkpt>
      <trkpt lat="47.03723" lon="-0.95114">
        <ele>83.599975585938</ele>
        <time>2014-09-17T08:28:27Z</time>
      </trkpt>
      <trkpt lat="47.03716" lon="-0.95105">
        <ele>83</ele>
        <time>2014-09-17T08:28:28Z</time>
      </trkpt>
      <trkpt lat="47.03704" lon="-0.95089">
        <ele>83</ele>
        <time>2014-09-17T08:28:30Z</time>
      </trkpt>
      <trkpt lat="47.03678" lon="-0.95059">
        <ele>83</ele>
        <time>2014-09-17T08:28:35Z</time>
      </trkpt>
      <trkpt lat="47.03669" lon="-0.95048">
        <ele>83.400024414062</ele>
        <time>2014-09-17T08:28:37Z</time>
      </trkpt>
      <trkpt lat="47.03664" lon="-0.95042">
        <ele>83.799987792969</ele>
        <time>2014-09-17T08:28:38Z</time>
      </trkpt>
      <trkpt lat="47.0366" lon="-0.95037">
        <ele>84.200012207031</ele>
        <time>2014-09-17T08:28:39Z</time>
      </trkpt>
      <trkpt lat="47.03655" lon="-0.95031">
        <ele>84.799987792969</ele>
        <time>2014-09-17T08:28:40Z</time>
      </trkpt>
      <trkpt lat="47.03651" lon="-0.95026">
        <ele>85.200012207031</ele>
        <time>2014-09-17T08:28:41Z</time>
      </trkpt>
      <trkpt lat="47.03637" lon="-0.95009">
        <ele>85.599975585938</ele>
        <time>2014-09-17T08:28:45Z</time>
      </trkpt>
      <trkpt lat="47.03634" lon="-0.95004">
        <ele>86</ele>
        <time>2014-09-17T08:28:46Z</time>
      </trkpt>
      <trkpt lat="47.03631" lon="-0.95001">
        <ele>86.400024414062</ele>
        <time>2014-09-17T08:28:47Z</time>
      </trkpt>
      <trkpt lat="47.03628" lon="-0.94997">
        <ele>86.799987792969</ele>
        <time>2014-09-17T08:28:48Z</time>
      </trkpt>
      <trkpt lat="47.03625" lon="-0.94993">
        <ele>87.400024414062</ele>
        <time>2014-09-17T08:28:49Z</time>
      </trkpt>
      <trkpt lat="47.03613" lon="-0.94978">
        <ele>87.400024414062</ele>
        <time>2014-09-17T08:28:53Z</time>
      </trkpt>
      <trkpt lat="47.03605" lon="-0.94968">
        <ele>88.200012207031</ele>
        <time>2014-09-17T08:28:56Z</time>
      </trkpt>
      <trkpt lat="47.03602" lon="-0.94965">
        <ele>88.599975585938</ele>
        <time>2014-09-17T08:28:57Z</time>
      </trkpt>
      <trkpt lat="47.036" lon="-0.94962">
        <ele>89</ele>
        <time>2014-09-17T08:28:58Z</time>
      </trkpt>
      <trkpt lat="47.03598" lon="-0.94959">
        <ele>89.400024414062</ele>
        <time>2014-09-17T08:28:59Z</time>
      </trkpt>
      <trkpt lat="47.03596" lon="-0.94956">
        <ele>89.400024414062</ele>
        <time>2014-09-17T08:29:00Z</time>
      </trkpt>
      <trkpt lat="47.03579" lon="-0.94933">
        <ele>89.799987792969</ele>
        <time>2014-09-17T08:29:07Z</time>
      </trkpt>
      <trkpt lat="47.03576" lon="-0.9493">
        <ele>90.200012207031</ele>
        <time>2014-09-17T08:29:08Z</time>
      </trkpt>
      <trkpt lat="47.03574" lon="-0.94926">
        <ele>90.599975585938</ele>
        <time>2014-09-17T08:29:09Z</time>
      </trkpt>
      <trkpt lat="47.03572" lon="-0.94923">
        <ele>91</ele>
        <time>2014-09-17T08:29:10Z</time>
      </trkpt>
      <trkpt lat="47.03569" lon="-0.9492">
        <ele>91.599975585938</ele>
        <time>2014-09-17T08:29:11Z</time>
      </trkpt>
      <trkpt lat="47.03558" lon="-0.94903">
        <ele>91.599975585938</ele>
        <time>2014-09-17T08:29:16Z</time>
      </trkpt>
      <trkpt lat="47.03543" lon="-0.94876">
        <ele>91.599975585938</ele>
        <time>2014-09-17T08:29:23Z</time>
      </trkpt>
      <trkpt lat="47.03524" lon="-0.94844">
        <ele>91.599975585938</ele>
        <time>2014-09-17T08:29:31Z</time>
      </trkpt>
      <trkpt lat="47.03515" lon="-0.94833">
        <ele>91.599975585938</ele>
        <time>2014-09-17T08:29:34Z</time>
      </trkpt>
      <trkpt lat="47.03502" lon="-0.94823">
        <ele>91.599975585938</ele>
        <time>2014-09-17T08:29:38Z</time>
      </trkpt>
      <trkpt lat="47.03489" lon="-0.94817">
        <ele>92</ele>
        <time>2014-09-17T08:29:42Z</time>
      </trkpt>
      <trkpt lat="47.03486" lon="-0.94816">
        <ele>92.400024414062</ele>
        <time>2014-09-17T08:29:43Z</time>
      </trkpt>
      <trkpt lat="47.03482" lon="-0.94816">
        <ele>92.799987792969</ele>
        <time>2014-09-17T08:29:44Z</time>
      </trkpt>
      <trkpt lat="47.03479" lon="-0.94815">
        <ele>93.200012207031</ele>
        <time>2014-09-17T08:29:45Z</time>
      </trkpt>
      <trkpt lat="47.03475" lon="-0.94814">
        <ele>93.599975585938</ele>
        <time>2014-09-17T08:29:46Z</time>
      </trkpt>
      <trkpt lat="47.03461" lon="-0.9481">
        <ele>93.599975585938</ele>
        <time>2014-09-17T08:29:50Z</time>
      </trkpt>
      <trkpt lat="47.03457" lon="-0.94809">
        <ele>93.599975585938</ele>
        <time>2014-09-17T08:29:51Z</time>
      </trkpt>
      <trkpt lat="47.03436" lon="-0.94803">
        <ele>93.599975585938</ele>
        <time>2014-09-17T08:29:56Z</time>
      </trkpt>
      <trkpt lat="47.03403" lon="-0.94795">
        <ele>93.599975585938</ele>
        <time>2014-09-17T08:30:05Z</time>
      </trkpt>
      <trkpt lat="47.03382" lon="-0.94792">
        <ele>93.599975585938</ele>
        <time>2014-09-17T08:30:11Z</time>
      </trkpt>
      <trkpt lat="47.03365" lon="-0.94784">
        <ele>93.599975585938</ele>
        <time>2014-09-17T08:30:18Z</time>
      </trkpt>
      <trkpt lat="47.03362" lon="-0.94782">
        <ele>94</ele>
        <time>2014-09-17T08:30:19Z</time>
      </trkpt>
      <trkpt lat="47.03359" lon="-0.9478">
        <ele>94.400024414062</ele>
        <time>2014-09-17T08:30:20Z</time>
      </trkpt>
      <trkpt lat="47.03356" lon="-0.94777">
        <ele>94.799987792969</ele>
        <time>2014-09-17T08:30:21Z</time>
      </trkpt>
      <trkpt lat="47.03354" lon="-0.94773">
        <ele>95.200012207031</ele>
        <time>2014-09-17T08:30:22Z</time>
      </trkpt>
      <trkpt lat="47.03352" lon="-0.94769">
        <ele>95.599975585938</ele>
        <time>2014-09-17T08:30:23Z</time>
      </trkpt>
      <trkpt lat="47.03348" lon="-0.94743">
        <ele>95.599975585938</ele>
        <time>2014-09-17T08:30:28Z</time>
      </trkpt>
      <trkpt lat="47.03348" lon="-0.94707">
        <ele>95.599975585938</ele>
        <time>2014-09-17T08:30:33Z</time>
      </trkpt>
      <trkpt lat="47.03351" lon="-0.94682">
        <ele>95.200012207031</ele>
        <time>2014-09-17T08:30:36Z</time>
      </trkpt>
      <trkpt lat="47.03352" lon="-0.94673">
        <ele>94.799987792969</ele>
        <time>2014-09-17T08:30:37Z</time>
      </trkpt>
      <trkpt lat="47.03352" lon="-0.94663">
        <ele>94.200012207031</ele>
        <time>2014-09-17T08:30:38Z</time>
      </trkpt>
      <trkpt lat="47.03353" lon="-0.94654">
        <ele>93.799987792969</ele>
        <time>2014-09-17T08:30:39Z</time>
      </trkpt>
      <trkpt lat="47.03353" lon="-0.94645">
        <ele>93.400024414062</ele>
        <time>2014-09-17T08:30:40Z</time>
      </trkpt>
      <trkpt lat="47.03356" lon="-0.94581">
        <ele>93.400024414062</ele>
        <time>2014-09-17T08:30:47Z</time>
      </trkpt>
      <trkpt lat="47.03352" lon="-0.94508">
        <ele>93.400024414062</ele>
        <time>2014-09-17T08:30:55Z</time>
      </trkpt>
      <trkpt lat="47.03347" lon="-0.9447">
        <ele>92.599975585938</ele>
        <time>2014-09-17T08:31:00Z</time>
      </trkpt>
      <trkpt lat="47.03347" lon="-0.94462">
        <ele>92.200012207031</ele>
        <time>2014-09-17T08:31:01Z</time>
      </trkpt>
      <trkpt lat="47.03346" lon="-0.94453">
        <ele>91.799987792969</ele>
        <time>2014-09-17T08:31:02Z</time>
      </trkpt>
      <trkpt lat="47.03345" lon="-0.94445">
        <ele>91.400024414062</ele>
        <time>2014-09-17T08:31:03Z</time>
      </trkpt>
      <trkpt lat="47.03343" lon="-0.94389">
        <ele>91.400024414062</ele>
        <time>2014-09-17T08:31:09Z</time>
      </trkpt>
      <trkpt lat="47.03342" lon="-0.94357">
        <ele>91</ele>
        <time>2014-09-17T08:31:12Z</time>
      </trkpt>
      <trkpt lat="47.0334" lon="-0.94346">
        <ele>90.599975585938</ele>
        <time>2014-09-17T08:31:13Z</time>
      </trkpt>
      <trkpt lat="47.03338" lon="-0.94335">
        <ele>90</ele>
        <time>2014-09-17T08:31:14Z</time>
      </trkpt>
      <trkpt lat="47.03338" lon="-0.94324">
        <ele>89.599975585938</ele>
        <time>2014-09-17T08:31:15Z</time>
      </trkpt>
      <trkpt lat="47.0334" lon="-0.94312">
        <ele>89.200012207031</ele>
        <time>2014-09-17T08:31:16Z</time>
      </trkpt>
      <trkpt lat="47.03342" lon="-0.94302">
        <ele>88.799987792969</ele>
        <time>2014-09-17T08:31:17Z</time>
      </trkpt>
      <trkpt lat="47.03344" lon="-0.94291">
        <ele>88.400024414062</ele>
        <time>2014-09-17T08:31:18Z</time>
      </trkpt>
      <trkpt lat="47.03345" lon="-0.9428">
        <ele>88</ele>
        <time>2014-09-17T08:31:19Z</time>
      </trkpt>
      <trkpt lat="47.03346" lon="-0.94269">
        <ele>87.599975585938</ele>
        <time>2014-09-17T08:31:20Z</time>
      </trkpt>
      <trkpt lat="47.03347" lon="-0.94259">
        <ele>87.200012207031</ele>
        <time>2014-09-17T08:31:21Z</time>
      </trkpt>
      <trkpt lat="47.03348" lon="-0.94239">
        <ele>87.200012207031</ele>
        <time>2014-09-17T08:31:23Z</time>
      </trkpt>
      <trkpt lat="47.03348" lon="-0.94212">
        <ele>87.200012207031</ele>
        <time>2014-09-17T08:31:26Z</time>
      </trkpt>
      <trkpt lat="47.03347" lon="-0.94204">
        <ele>87.599975585938</ele>
        <time>2014-09-17T08:31:27Z</time>
      </trkpt>
      <trkpt lat="47.03347" lon="-0.94196">
        <ele>88</ele>
        <time>2014-09-17T08:31:28Z</time>
      </trkpt>
      <trkpt lat="47.03347" lon="-0.94188">
        <ele>88.599975585938</ele>
        <time>2014-09-17T08:31:29Z</time>
      </trkpt>
      <trkpt lat="47.03346" lon="-0.9418">
        <ele>89</ele>
        <time>2014-09-17T08:31:30Z</time>
      </trkpt>
      <trkpt lat="47.03346" lon="-0.94173">
        <ele>89.400024414062</ele>
        <time>2014-09-17T08:31:31Z</time>
      </trkpt>
      <trkpt lat="47.03345" lon="-0.94165">
        <ele>89.400024414062</ele>
        <time>2014-09-17T08:31:32Z</time>
      </trkpt>
      <trkpt lat="47.03344" lon="-0.94158">
        <ele>90</ele>
        <time>2014-09-17T08:31:33Z</time>
      </trkpt>
      <trkpt lat="47.03343" lon="-0.94151">
        <ele>90.400024414062</ele>
        <time>2014-09-17T08:31:34Z</time>
      </trkpt>
      <trkpt lat="47.03342" lon="-0.94144">
        <ele>90.799987792969</ele>
        <time>2014-09-17T08:31:35Z</time>
      </trkpt>
      <trkpt lat="47.0334" lon="-0.94137">
        <ele>91.200012207031</ele>
        <time>2014-09-17T08:31:36Z</time>
      </trkpt>
      <trkpt lat="47.03339" lon="-0.94131">
        <ele>91.799987792969</ele>
        <time>2014-09-17T08:31:37Z</time>
      </trkpt>
      <trkpt lat="47.03339" lon="-0.94125">
        <ele>91.799987792969</ele>
        <time>2014-09-17T08:31:38Z</time>
      </trkpt>
      <trkpt lat="47.03334" lon="-0.94101">
        <ele>92.200012207031</ele>
        <time>2014-09-17T08:31:42Z</time>
      </trkpt>
      <trkpt lat="47.03332" lon="-0.94096">
        <ele>92.599975585938</ele>
        <time>2014-09-17T08:31:43Z</time>
      </trkpt>
      <trkpt lat="47.03331" lon="-0.9409">
        <ele>93</ele>
        <time>2014-09-17T08:31:44Z</time>
      </trkpt>
      <trkpt lat="47.03331" lon="-0.94084">
        <ele>93.400024414062</ele>
        <time>2014-09-17T08:31:45Z</time>
      </trkpt>
      <trkpt lat="47.03331" lon="-0.94079">
        <ele>93.799987792969</ele>
        <time>2014-09-17T08:31:46Z</time>
      </trkpt>
      <trkpt lat="47.03331" lon="-0.94074">
        <ele>93.799987792969</ele>
        <time>2014-09-17T08:31:47Z</time>
      </trkpt>
      <trkpt lat="47.03332" lon="-0.94059">
        <ele>93.799987792969</ele>
        <time>2014-09-17T08:31:52Z</time>
      </trkpt>
      <trkpt lat="47.03342" lon="-0.94052">
        <ele>93.799987792969</ele>
        <time>2014-09-17T08:31:56Z</time>
      </trkpt>
      <trkpt lat="47.03345" lon="-0.9405">
        <ele>93.799987792969</ele>
        <time>2014-09-17T08:31:57Z</time>
      </trkpt>
      <trkpt lat="47.03364" lon="-0.94033">
        <ele>93.799987792969</ele>
        <time>2014-09-17T08:32:04Z</time>
      </trkpt>
      <trkpt lat="47.03384" lon="-0.94017">
        <ele>93.799987792969</ele>
        <time>2014-09-17T08:32:11Z</time>
      </trkpt>
      <trkpt lat="47.03394" lon="-0.94028">
        <ele>93.799987792969</ele>
        <time>2014-09-17T08:32:15Z</time>
      </trkpt>
      <trkpt lat="47.03406" lon="-0.94044">
        <ele>93.799987792969</ele>
        <time>2014-09-17T08:32:20Z</time>
      </trkpt>
      <trkpt lat="47.03415" lon="-0.94047">
        <ele>93.799987792969</ele>
        <time>2014-09-17T08:32:26Z</time>
      </trkpt>
      <trkpt lat="47.03418" lon="-0.94043">
        <ele>93.799987792969</ele>
        <time>2014-09-17T08:32:28Z</time>
      </trkpt>
      <trkpt lat="47.03423" lon="-0.94036">
        <ele>93.799987792969</ele>
        <time>2014-09-17T08:32:31Z</time>
      </trkpt>
      <trkpt lat="47.03435" lon="-0.94022">
        <ele>93.799987792969</ele>
        <time>2014-09-17T08:32:38Z</time>
      </trkpt>
      <trkpt lat="47.03443" lon="-0.94032">
        <ele>93.799987792969</ele>
        <time>2014-09-17T08:32:42Z</time>
      </trkpt>
      <trkpt lat="47.03446" lon="-0.94038">
        <ele>93.799987792969</ele>
        <time>2014-09-17T08:32:44Z</time>
      </trkpt>
      <trkpt lat="47.03447" lon="-0.94042">
        <ele>93.799987792969</ele>
        <time>2014-09-17T08:32:47Z</time>
      </trkpt>
      <trkpt lat="47.03446" lon="-0.94046">
        <ele>93.799987792969</ele>
        <time>2014-09-17T08:32:52Z</time>
      </trkpt>
      <trkpt lat="47.03447" lon="-0.94048">
        <ele>93.799987792969</ele>
        <time>2014-09-17T08:32:58Z</time>
      </trkpt>
      <trkpt lat="47.03446" lon="-0.94048">
        <ele>93.799987792969</ele>
        <time>2014-09-17T08:33:06Z</time>
      </trkpt>
      <trkpt lat="47.03445" lon="-0.94048">
        <ele>93.799987792969</ele>
        <time>2014-09-17T08:33:07Z</time>
      </trkpt>
    </trkseg>
  </trk>
</gpx>